KLM844 VTBS-EHAM
Flight info
| Callsign | KLM844 |
|---|---|
| Flight time | N/A |
| Altitude | 32000 |
| Route | TARED1F TARED G463 BETNO DCT PTN P646 DOPID Q26 CEA R460 LKN DCT PUMOT/N0497F340 DCT SULOM T400 NONIB DCT HANGU DCT LAJAK L509 TAPIS DCT AMDAR/K0907F340 DCT REBKE Y927 POGON/N0491F340 A477 MAHYM/N0487F360 A477 BABUM A909 RODAR DCT ERLEV T923 SUBUT T916 MATAL DCT TABAS DCT REBLO UR317 TBN UM11 CRM UL746 ODERO DCT OPT DCT SOKRU DCT BEGLA/N0482F380 DCT DITIS DCT VARIK DCT KATCE DCT HMM/N0481F340 T281 NORKU |
| Aircraft | B77W/H-SDE1E2E3FGHIJ2J3J4J5M1RWXY/LB1D1 |
Departure
| Time | 2026-05-07 22:04 |
|---|---|
| Airport | Suvarnabhumi Airport (VTBS) |
Arrival
| Time | N/A |
|---|---|
| Airport | Amsterdam Airport Schiphol (EHAM) |
| Time | Latitude | Longitude | Altitude | Speed | Heading |
|---|---|---|---|---|---|
| 2026-05-07 21:31 | 13.68165 | 100.74707 | 13 ft | 0 kts | 8° |
| 2026-05-07 21:55 | 13.68166 | 100.74707 | 13 ft | 1 kts | 10° |
| 2026-05-07 21:55 | 13.68189 | 100.74726 | 13 ft | 6 kts | 71° |
| 2026-05-07 21:56 | 13.68167 | 100.74759 | 13 ft | 7 kts | 144° |
| 2026-05-07 21:56 | 13.68121 | 100.74793 | 13 ft | 9 kts | 144° |
| 2026-05-07 21:56 | 13.68072 | 100.74828 | 13 ft | 9 kts | 144° |
| 2026-05-07 21:56 | 13.68028 | 100.74871 | 13 ft | 10 kts | 120° |
| 2026-05-07 21:57 | 13.68002 | 100.74943 | 13 ft | 11 kts | 107° |
| 2026-05-07 21:57 | 13.67977 | 100.75036 | 13 ft | 15 kts | 105° |
| 2026-05-07 21:57 | 13.67951 | 100.75138 | 13 ft | 15 kts | 104° |
| 2026-05-07 21:57 | 13.67925 | 100.75240 | 13 ft | 15 kts | 104° |
| 2026-05-07 21:58 | 13.67901 | 100.75342 | 13 ft | 15 kts | 103° |
| 2026-05-07 21:58 | 13.67869 | 100.75440 | 13 ft | 15 kts | 126° |
| 2026-05-07 21:58 | 13.67782 | 100.75494 | 13 ft | 15 kts | 142° |
| 2026-05-07 21:58 | 13.67686 | 100.75524 | 13 ft | 15 kts | 189° |
| 2026-05-07 21:59 | 13.67586 | 100.75498 | 13 ft | 15 kts | 194° |
| 2026-05-07 21:59 | 13.67483 | 100.75471 | 13 ft | 15 kts | 195° |
| 2026-05-07 21:59 | 13.67358 | 100.75435 | 13 ft | 20 kts | 195° |
| 2026-05-07 21:59 | 13.67223 | 100.75399 | 13 ft | 20 kts | 193° |
| 2026-05-07 22:00 | 13.67088 | 100.75366 | 13 ft | 20 kts | 193° |
| 2026-05-07 22:00 | 13.66953 | 100.75333 | 13 ft | 20 kts | 193° |
| 2026-05-07 22:00 | 13.66819 | 100.75294 | 13 ft | 20 kts | 194° |
| 2026-05-07 22:00 | 13.66685 | 100.75258 | 13 ft | 20 kts | 194° |
| 2026-05-07 22:01 | 13.66550 | 100.75222 | 13 ft | 20 kts | 194° |
| 2026-05-07 22:01 | 13.66416 | 100.75186 | 14 ft | 20 kts | 194° |
| 2026-05-07 22:01 | 13.66281 | 100.75151 | 14 ft | 20 kts | 194° |
| 2026-05-07 22:01 | 13.66146 | 100.75116 | 14 ft | 20 kts | 194° |
| 2026-05-07 22:02 | 13.66012 | 100.75081 | 15 ft | 20 kts | 194° |
| 2026-05-07 22:02 | 13.65877 | 100.75046 | 15 ft | 20 kts | 194° |
| 2026-05-07 22:02 | 13.65743 | 100.75019 | 15 ft | 15 kts | 171° |
| 2026-05-07 22:02 | 13.65692 | 100.75105 | 14 ft | 15 kts | 100° |
| 2026-05-07 22:03 | 13.65738 | 100.75193 | 15 ft | 15 kts | 33° |
| 2026-05-07 22:03 | 13.65775 | 100.75209 | 15 ft | 0 kts | 15° |
| 2026-05-07 22:03 | 13.65920 | 100.75249 | 16 ft | 57 kts | 15° |
| 2026-05-07 22:03 | 13.66549 | 100.75413 | 13 ft | 128 kts | 14° |
| 2026-05-07 22:04 | 13.67632 | 100.75694 | 11 ft | 191 kts | 13° |
| 2026-05-07 22:04 | 13.69028 | 100.76082 | 327 ft | 212 kts | 16° |
| 2026-05-07 22:04 | 13.70458 | 100.76478 | 998 ft | 212 kts | 21° |
| 2026-05-07 22:04 | 13.71682 | 100.77354 | 1331 ft | 223 kts | 58° |
| 2026-05-07 22:05 | 13.72370 | 100.78781 | 1798 ft | 227 kts | 65° |
| 2026-05-07 22:05 | 13.73104 | 100.80306 | 1916 ft | 247 kts | 62° |
| 2026-05-07 22:05 | 13.73961 | 100.81874 | 2275 ft | 256 kts | 59° |
| 2026-05-07 22:05 | 13.74922 | 100.83485 | 2593 ft | 270 kts | 58° |
| 2026-05-07 22:06 | 13.75907 | 100.85154 | 3097 ft | 275 kts | 60° |
| 2026-05-07 22:06 | 13.76590 | 100.86284 | 3445 ft | 277 kts | 55° |
| 2026-05-07 22:06 | 13.77748 | 100.87874 | 4079 ft | 278 kts | 52° |
| 2026-05-07 22:06 | 13.78942 | 100.89437 | 4742 ft | 278 kts | 52° |
| 2026-05-07 22:07 | 13.80130 | 100.91010 | 5358 ft | 279 kts | 53° |
| 2026-05-07 22:07 | 13.81294 | 100.92574 | 5943 ft | 281 kts | 53° |
| 2026-05-07 22:07 | 13.82483 | 100.94184 | 6508 ft | 283 kts | 53° |
| 2026-05-07 22:07 | 13.83676 | 100.95802 | 7044 ft | 284 kts | 52° |
| 2026-05-07 22:08 | 13.85137 | 100.97167 | 7414 ft | 290 kts | 25° |
| 2026-05-07 22:08 | 13.87094 | 100.97651 | 7814 ft | 293 kts | 4° |
| 2026-05-07 22:08 | 13.89147 | 100.97744 | 8251 ft | 297 kts | 4° |
| 2026-05-07 22:08 | 13.91218 | 100.97862 | 8779 ft | 299 kts | 4° |
| 2026-05-07 22:09 | 13.93290 | 100.97852 | 9233 ft | 300 kts | 348° |
| 2026-05-07 22:09 | 13.95189 | 100.96946 | 9588 ft | 307 kts | 318° |
| 2026-05-07 22:09 | 13.96553 | 100.95258 | 10003 ft | 308 kts | 304° |
| 2026-05-07 22:09 | 13.97776 | 100.93412 | 10291 ft | 319 kts | 304° |
| 2026-05-07 22:10 | 13.99068 | 100.91471 | 10412 ft | 337 kts | 304° |
| 2026-05-07 22:10 | 14.00431 | 100.89427 | 10530 ft | 355 kts | 304° |
| 2026-05-07 22:10 | 14.01867 | 100.87283 | 10677 ft | 372 kts | 305° |
| 2026-05-07 22:10 | 14.03363 | 100.85056 | 10961 ft | 384 kts | 304° |
| 2026-05-07 22:11 | 14.04679 | 100.82655 | 11201 ft | 390 kts | 288° |
| 2026-05-07 22:11 | 14.05180 | 100.79911 | 11599 ft | 392 kts | 276° |
| 2026-05-07 22:11 | 14.05503 | 100.77098 | 12109 ft | 397 kts | 277° |
| 2026-05-07 22:11 | 14.05905 | 100.74282 | 12774 ft | 398 kts | 278° |
| 2026-05-07 22:12 | 14.06338 | 100.71458 | 13406 ft | 401 kts | 278° |
| 2026-05-07 22:12 | 14.06779 | 100.68612 | 13943 ft | 404 kts | 278° |
| 2026-05-07 22:12 | 14.07221 | 100.65735 | 14430 ft | 409 kts | 278° |
| 2026-05-07 22:12 | 14.07665 | 100.62829 | 14900 ft | 413 kts | 278° |
| 2026-05-07 22:13 | 14.08111 | 100.59899 | 15386 ft | 416 kts | 278° |
| 2026-05-07 22:13 | 14.08562 | 100.56939 | 15852 ft | 420 kts | 278° |
| 2026-05-07 22:13 | 14.09016 | 100.53952 | 16319 ft | 424 kts | 278° |
| 2026-05-07 22:13 | 14.09475 | 100.50936 | 16779 ft | 428 kts | 278° |
| 2026-05-07 22:14 | 14.09937 | 100.47894 | 17236 ft | 431 kts | 278° |
| 2026-05-07 22:14 | 14.10402 | 100.44830 | 17720 ft | 435 kts | 278° |
| 2026-05-07 22:14 | 14.10870 | 100.41743 | 18162 ft | 438 kts | 278° |
| 2026-05-07 22:14 | 14.11342 | 100.38629 | 18542 ft | 442 kts | 278° |
| 2026-05-07 22:15 | 14.11817 | 100.35493 | 18936 ft | 444 kts | 278° |
| 2026-05-07 22:15 | 14.12293 | 100.32342 | 19336 ft | 447 kts | 278° |
| 2026-05-07 22:15 | 14.12773 | 100.29168 | 19727 ft | 450 kts | 278° |
| 2026-05-07 22:15 | 14.13255 | 100.25976 | 20108 ft | 452 kts | 278° |
| 2026-05-07 22:16 | 14.13740 | 100.22764 | 20490 ft | 455 kts | 278° |
| 2026-05-07 22:16 | 14.14227 | 100.19530 | 20867 ft | 458 kts | 278° |
| 2026-05-07 22:16 | 14.14717 | 100.16275 | 21239 ft | 461 kts | 278° |
| 2026-05-07 22:16 | 14.15210 | 100.13004 | 21618 ft | 464 kts | 278° |
| 2026-05-07 22:17 | 14.15705 | 100.09707 | 21965 ft | 467 kts | 278° |
| 2026-05-07 22:17 | 14.16202 | 100.06395 | 22326 ft | 469 kts | 278° |
| 2026-05-07 22:17 | 14.16702 | 100.03066 | 22680 ft | 472 kts | 278° |
| 2026-05-07 22:17 | 14.17205 | 99.99711 | 23024 ft | 475 kts | 278° |
| 2026-05-07 22:18 | 14.17709 | 99.96341 | 23354 ft | 477 kts | 278° |
| 2026-05-07 22:18 | 14.19506 | 99.89789 | 23775 ft | 481 kts | 303° |
| 2026-05-07 22:18 | 14.21418 | 99.86970 | 24000 ft | 481 kts | 306° |
| 2026-05-07 22:19 | 14.23336 | 99.84188 | 24245 ft | 484 kts | 305° |
| 2026-05-07 22:19 | 14.25280 | 99.81293 | 24559 ft | 485 kts | 304° |
| 2026-05-07 22:19 | 14.27148 | 99.78451 | 24873 ft | 486 kts | 304° |
| 2026-05-07 22:19 | 14.29028 | 99.75554 | 25179 ft | 487 kts | 304° |
| 2026-05-07 22:20 | 14.30930 | 99.72605 | 25470 ft | 488 kts | 304° |
| 2026-05-07 22:20 | 14.32789 | 99.69721 | 25736 ft | 490 kts | 304° |
| 2026-05-07 22:20 | 14.34677 | 99.66792 | 26032 ft | 492 kts | 304° |
| 2026-05-07 22:20 | 14.36577 | 99.63848 | 26305 ft | 493 kts | 304° |
| 2026-05-07 22:21 | 14.38479 | 99.60903 | 26573 ft | 495 kts | 304° |
| 2026-05-07 22:21 | 14.40389 | 99.57944 | 26815 ft | 497 kts | 304° |
| 2026-05-07 22:21 | 14.42308 | 99.54972 | 27057 ft | 498 kts | 304° |
| 2026-05-07 22:21 | 14.44223 | 99.51987 | 27322 ft | 500 kts | 303° |
| 2026-05-07 22:22 | 14.45988 | 99.48891 | 27577 ft | 502 kts | 300° |
| 2026-05-07 22:22 | 14.47609 | 99.45699 | 27823 ft | 503 kts | 297° |
| 2026-05-07 22:22 | 14.49171 | 99.42460 | 28083 ft | 504 kts | 297° |
| 2026-05-07 22:22 | 14.50723 | 99.39215 | 28341 ft | 505 kts | 297° |
| 2026-05-07 22:23 | 14.52292 | 99.35969 | 28557 ft | 506 kts | 297° |
| 2026-05-07 22:23 | 14.53887 | 99.32723 | 28759 ft | 508 kts | 298° |
| 2026-05-07 22:23 | 14.55503 | 99.29479 | 28965 ft | 509 kts | 298° |
| 2026-05-07 22:23 | 14.57134 | 99.26232 | 29153 ft | 510 kts | 298° |
| 2026-05-07 22:24 | 14.58773 | 99.22980 | 29363 ft | 511 kts | 298° |
| 2026-05-07 22:24 | 14.60418 | 99.19721 | 29536 ft | 512 kts | 298° |
| 2026-05-07 22:24 | 14.62063 | 99.16458 | 29721 ft | 513 kts | 298° |
| 2026-05-07 22:25 | 14.65363 | 99.09900 | 29856 ft | 514 kts | 298° |
| 2026-05-07 22:25 | 14.68642 | 99.03368 | 29891 ft | 511 kts | 299° |
| 2026-05-07 22:26 | 14.71907 | 98.96860 | 29898 ft | 509 kts | 299° |
| 2026-05-07 22:26 | 14.75164 | 98.90360 | 29892 ft | 509 kts | 299° |
| 2026-05-07 22:27 | 14.78417 | 98.83866 | 29899 ft | 509 kts | 298° |
| 2026-05-07 22:27 | 14.81666 | 98.77371 | 29899 ft | 509 kts | 298° |
| 2026-05-07 22:28 | 14.84914 | 98.70875 | 29899 ft | 509 kts | 298° |
| 2026-05-07 22:28 | 14.88158 | 98.64379 | 29901 ft | 509 kts | 298° |
| 2026-05-07 22:29 | 14.91407 | 98.57871 | 29896 ft | 509 kts | 298° |
| 2026-05-07 22:29 | 14.94656 | 98.51354 | 29891 ft | 510 kts | 298° |
| 2026-05-07 22:30 | 14.97904 | 98.44833 | 29885 ft | 510 kts | 298° |
| 2026-05-07 22:30 | 15.01155 | 98.38302 | 29887 ft | 511 kts | 298° |
| 2026-05-07 22:31 | 15.04404 | 98.31767 | 29876 ft | 511 kts | 298° |
| 2026-05-07 22:31 | 15.07656 | 98.25221 | 29876 ft | 512 kts | 298° |
| 2026-05-07 22:32 | 15.10915 | 98.18674 | 29872 ft | 512 kts | 298° |
| 2026-05-07 22:32 | 15.14235 | 98.12146 | 29871 ft | 512 kts | 299° |
| 2026-05-07 22:33 | 15.17570 | 98.05628 | 29870 ft | 512 kts | 299° |
| 2026-05-07 22:33 | 15.20895 | 97.99107 | 29864 ft | 512 kts | 299° |
| 2026-05-07 22:34 | 15.24213 | 97.92577 | 29865 ft | 513 kts | 298° |
| 2026-05-07 22:34 | 15.27533 | 97.86031 | 29861 ft | 514 kts | 298° |
| 2026-05-07 22:35 | 15.30833 | 97.79519 | 29862 ft | 514 kts | 298° |
| 2026-05-07 22:35 | 15.34178 | 97.72915 | 29852 ft | 515 kts | 298° |
| 2026-05-07 22:36 | 15.37503 | 97.66344 | 29854 ft | 515 kts | 298° |
| 2026-05-07 22:36 | 15.40828 | 97.59768 | 29855 ft | 515 kts | 298° |
| 2026-05-07 22:37 | 15.44157 | 97.53179 | 29853 ft | 517 kts | 298° |
| 2026-05-07 22:37 | 15.47500 | 97.46553 | 29860 ft | 520 kts | 298° |
| 2026-05-07 22:38 | 15.50861 | 97.39888 | 29857 ft | 523 kts | 298° |
| 2026-05-07 22:38 | 15.54207 | 97.33246 | 29860 ft | 524 kts | 297° |
| 2026-05-07 22:39 | 15.57576 | 97.26552 | 29851 ft | 523 kts | 297° |
| 2026-05-07 22:39 | 15.60935 | 97.19870 | 29849 ft | 522 kts | 297° |
| 2026-05-07 22:40 | 15.64284 | 97.13205 | 29848 ft | 520 kts | 297° |
| 2026-05-07 22:40 | 15.67622 | 97.06553 | 29849 ft | 519 kts | 297° |
| 2026-05-07 22:41 | 15.70954 | 96.99909 | 29852 ft | 519 kts | 297° |
| 2026-05-07 22:41 | 15.74282 | 96.93265 | 29846 ft | 519 kts | 297° |
| 2026-05-07 22:42 | 15.77608 | 96.86620 | 29846 ft | 519 kts | 297° |
| 2026-05-07 22:42 | 15.80935 | 96.79967 | 29848 ft | 519 kts | 297° |
| 2026-05-07 22:43 | 15.84260 | 96.73310 | 29840 ft | 519 kts | 297° |
| 2026-05-07 22:43 | 15.87585 | 96.66649 | 29842 ft | 519 kts | 297° |
| 2026-05-07 22:44 | 15.90907 | 96.59985 | 29843 ft | 519 kts | 297° |
| 2026-05-07 22:44 | 15.94223 | 96.53329 | 29839 ft | 518 kts | 297° |
| 2026-05-07 22:45 | 15.97534 | 96.46677 | 29838 ft | 518 kts | 297° |
| 2026-05-07 22:45 | 16.00838 | 96.40031 | 29835 ft | 518 kts | 297° |
| 2026-05-07 22:46 | 16.04144 | 96.33374 | 29840 ft | 518 kts | 297° |
| 2026-05-07 22:46 | 16.07449 | 96.26714 | 29839 ft | 519 kts | 297° |
| 2026-05-07 22:47 | 16.10759 | 96.20039 | 29842 ft | 520 kts | 297° |
| 2026-05-07 22:47 | 16.14068 | 96.13358 | 29842 ft | 520 kts | 297° |
| 2026-05-07 22:48 | 16.17379 | 96.06668 | 29839 ft | 520 kts | 296° |
| 2026-05-07 22:48 | 16.20678 | 95.99992 | 29842 ft | 521 kts | 296° |
| 2026-05-07 22:49 | 16.23433 | 95.94414 | 29840 ft | 521 kts | 296° |
| 2026-05-07 22:49 | 16.26748 | 95.87698 | 29841 ft | 522 kts | 296° |
| 2026-05-07 22:50 | 16.30060 | 95.80980 | 29843 ft | 521 kts | 296° |
| 2026-05-07 22:50 | 16.33358 | 95.74283 | 29833 ft | 519 kts | 296° |
| 2026-05-07 22:51 | 16.36644 | 95.67604 | 29834 ft | 518 kts | 296° |
| 2026-05-07 22:51 | 16.39924 | 95.60931 | 29835 ft | 517 kts | 296° |
| 2026-05-07 22:52 | 16.43197 | 95.54267 | 29834 ft | 517 kts | 296° |
| 2026-05-07 22:52 | 16.46468 | 95.47599 | 29834 ft | 517 kts | 296° |
| 2026-05-07 22:53 | 16.49739 | 95.40923 | 29833 ft | 517 kts | 296° |
| 2026-05-07 22:53 | 16.53010 | 95.34242 | 29834 ft | 518 kts | 296° |
| 2026-05-07 22:54 | 16.56281 | 95.27555 | 29831 ft | 518 kts | 295° |
| 2026-05-07 22:54 | 16.59549 | 95.20867 | 29825 ft | 517 kts | 295° |
| 2026-05-07 22:55 | 16.62810 | 95.14187 | 29827 ft | 516 kts | 295° |
| 2026-05-07 22:55 | 16.66062 | 95.07518 | 29834 ft | 515 kts | 295° |
| 2026-05-07 22:56 | 16.69301 | 95.00870 | 29825 ft | 513 kts | 295° |
| 2026-05-07 22:56 | 16.72530 | 94.94235 | 29833 ft | 512 kts | 295° |
| 2026-05-07 22:57 | 16.75746 | 94.87619 | 29830 ft | 510 kts | 295° |
| 2026-05-07 22:57 | 16.78950 | 94.81022 | 29828 ft | 509 kts | 295° |
| 2026-05-07 22:58 | 16.82585 | 94.74676 | 29820 ft | 511 kts | 305° |
| 2026-05-07 22:58 | 16.87042 | 94.68957 | 29838 ft | 512 kts | 308° |
| 2026-05-07 22:59 | 16.91579 | 94.63216 | 29834 ft | 513 kts | 307° |
| 2026-05-07 22:59 | 16.96094 | 94.57437 | 29834 ft | 514 kts | 307° |
| 2026-05-07 23:00 | 17.00592 | 94.51633 | 29842 ft | 514 kts | 307° |
| 2026-05-07 23:00 | 17.05075 | 94.45835 | 29833 ft | 512 kts | 307° |
| 2026-05-07 23:01 | 17.09544 | 94.40053 | 29829 ft | 510 kts | 307° |
| 2026-05-07 23:01 | 17.13996 | 94.34292 | 29833 ft | 509 kts | 307° |
| 2026-05-07 23:02 | 17.18435 | 94.28542 | 29836 ft | 508 kts | 307° |
| 2026-05-07 23:02 | 17.22870 | 94.22792 | 29836 ft | 508 kts | 307° |
| 2026-05-07 23:03 | 17.27306 | 94.17037 | 29838 ft | 508 kts | 307° |
| 2026-05-07 23:03 | 17.31744 | 94.11273 | 29838 ft | 509 kts | 307° |
| 2026-05-07 23:04 | 17.36153 | 94.05543 | 29847 ft | 509 kts | 307° |
| 2026-05-07 23:04 | 17.40586 | 93.99778 | 29837 ft | 508 kts | 306° |
| 2026-05-07 23:05 | 17.45008 | 93.94021 | 29835 ft | 506 kts | 306° |
| 2026-05-07 23:05 | 17.49418 | 93.88275 | 29838 ft | 505 kts | 306° |
| 2026-05-07 23:06 | 17.53815 | 93.82541 | 29837 ft | 504 kts | 306° |
| 2026-05-07 23:06 | 17.58215 | 93.76797 | 30007 ft | 507 kts | 306° |
| 2026-05-07 23:06 | 17.60419 | 93.73918 | 30239 ft | 505 kts | 306° |
| 2026-05-07 23:07 | 17.62612 | 93.71053 | 30526 ft | 503 kts | 306° |
| 2026-05-07 23:07 | 17.64797 | 93.68197 | 30812 ft | 501 kts | 306° |
| 2026-05-07 23:07 | 17.66978 | 93.65346 | 31075 ft | 500 kts | 306° |
| 2026-05-07 23:07 | 17.69151 | 93.62503 | 31298 ft | 499 kts | 306° |
| 2026-05-07 23:08 | 17.71320 | 93.59663 | 31514 ft | 499 kts | 306° |
| 2026-05-07 23:08 | 17.73484 | 93.56830 | 31760 ft | 497 kts | 306° |
| 2026-05-07 23:08 | 17.75648 | 93.53995 | 31791 ft | 497 kts | 306° |
| 2026-05-07 23:09 | 17.79963 | 93.48338 | 31831 ft | 496 kts | 306° |
| 2026-05-07 23:09 | 17.84262 | 93.42698 | 31835 ft | 494 kts | 306° |
| 2026-05-07 23:10 | 17.88553 | 93.37063 | 31838 ft | 494 kts | 306° |
| 2026-05-07 23:10 | 17.92837 | 93.31432 | 31840 ft | 494 kts | 306° |
| 2026-05-07 23:11 | 17.97123 | 93.25794 | 31840 ft | 494 kts | 306° |
| 2026-05-07 23:11 | 18.01380 | 93.20189 | 31832 ft | 495 kts | 306° |
| 2026-05-07 23:12 | 18.05673 | 93.14532 | 31834 ft | 495 kts | 306° |
| 2026-05-07 23:12 | 18.09966 | 93.08871 | 31840 ft | 495 kts | 306° |
| 2026-05-07 23:13 | 18.14256 | 93.03209 | 31830 ft | 494 kts | 306° |
| 2026-05-07 23:13 | 18.18531 | 92.97562 | 31830 ft | 493 kts | 306° |
| 2026-05-07 23:14 | 18.22795 | 92.91923 | 31837 ft | 492 kts | 306° |
| 2026-05-07 23:14 | 18.27052 | 92.86289 | 31835 ft | 492 kts | 306° |
| 2026-05-07 23:15 | 18.31310 | 92.80648 | 31833 ft | 492 kts | 305° |
| 2026-05-07 23:15 | 18.35564 | 92.75008 | 31836 ft | 492 kts | 305° |
| 2026-05-07 23:16 | 18.39817 | 92.69365 | 31837 ft | 492 kts | 305° |
| 2026-05-07 23:16 | 18.44077 | 92.63708 | 31840 ft | 493 kts | 305° |
| 2026-05-07 23:17 | 18.48343 | 92.58035 | 31843 ft | 495 kts | 305° |
| 2026-05-07 23:17 | 18.52620 | 92.52345 | 31838 ft | 496 kts | 305° |
| 2026-05-07 23:18 | 18.56908 | 92.46634 | 31837 ft | 496 kts | 305° |
| 2026-05-07 23:18 | 18.61192 | 92.40924 | 31839 ft | 497 kts | 305° |
| 2026-05-07 23:19 | 18.65478 | 92.35206 | 31837 ft | 497 kts | 305° |
| 2026-05-07 23:19 | 18.69728 | 92.29531 | 31840 ft | 496 kts | 305° |
| 2026-05-07 23:20 | 18.74006 | 92.23813 | 31839 ft | 497 kts | 304° |
| 2026-05-07 23:20 | 18.78282 | 92.18092 | 31844 ft | 497 kts | 304° |
| 2026-05-07 23:21 | 18.82560 | 92.12363 | 31841 ft | 497 kts | 304° |
| 2026-05-07 23:21 | 18.86835 | 92.06633 | 31841 ft | 497 kts | 304° |
| 2026-05-07 23:22 | 18.91111 | 92.00896 | 31841 ft | 497 kts | 304° |
| 2026-05-07 23:22 | 18.95366 | 91.95141 | 31847 ft | 497 kts | 304° |
| 2026-05-07 23:23 | 18.99588 | 91.89355 | 31850 ft | 497 kts | 304° |
| 2026-05-07 23:23 | 19.03803 | 91.83570 | 31846 ft | 497 kts | 304° |
| 2026-05-07 23:24 | 19.08021 | 91.77785 | 31845 ft | 497 kts | 304° |
| 2026-05-07 23:24 | 19.12237 | 91.72002 | 31858 ft | 496 kts | 303° |
| 2026-05-07 23:25 | 19.16443 | 91.66230 | 31848 ft | 495 kts | 303° |
| 2026-05-07 23:25 | 19.20605 | 91.60513 | 31845 ft | 493 kts | 303° |
| 2026-05-07 23:26 | 19.24778 | 91.54774 | 31844 ft | 491 kts | 303° |
| 2026-05-07 23:26 | 19.28939 | 91.49046 | 31854 ft | 490 kts | 303° |
| 2026-05-07 23:27 | 19.35171 | 91.40456 | 31849 ft | 490 kts | 303° |
| 2026-05-07 23:27 | 19.39326 | 91.34722 | 31850 ft | 491 kts | 303° |
| 2026-05-07 23:28 | 19.43487 | 91.28974 | 31851 ft | 492 kts | 303° |
| 2026-05-07 23:28 | 19.47649 | 91.23220 | 31860 ft | 492 kts | 303° |
| 2026-05-07 23:29 | 19.51809 | 91.17465 | 31847 ft | 491 kts | 303° |
| 2026-05-07 23:29 | 19.55957 | 91.11720 | 31847 ft | 490 kts | 303° |
| 2026-05-07 23:30 | 19.60099 | 91.05978 | 31855 ft | 490 kts | 303° |
| 2026-05-07 23:30 | 19.64233 | 91.00240 | 31854 ft | 489 kts | 303° |
| 2026-05-07 23:31 | 19.68363 | 90.94504 | 31853 ft | 489 kts | 303° |
| 2026-05-07 23:31 | 19.72490 | 90.88765 | 31859 ft | 489 kts | 303° |
| 2026-05-07 23:32 | 19.76617 | 90.83022 | 31855 ft | 489 kts | 303° |
| 2026-05-07 23:32 | 19.80744 | 90.77272 | 31872 ft | 490 kts | 302° |
| 2026-05-07 23:33 | 19.84873 | 90.71514 | 31863 ft | 490 kts | 302° |
| 2026-05-07 23:33 | 19.89000 | 90.65754 | 31859 ft | 490 kts | 302° |
| 2026-05-07 23:34 | 19.93127 | 90.59988 | 31863 ft | 490 kts | 302° |
| 2026-05-07 23:34 | 19.97251 | 90.54221 | 31862 ft | 490 kts | 302° |
| 2026-05-07 23:35 | 20.01371 | 90.48454 | 31863 ft | 490 kts | 302° |
| 2026-05-07 23:35 | 20.04794 | 90.43657 | 31863 ft | 490 kts | 302° |
| 2026-05-07 23:36 | 20.08912 | 90.37883 | 31872 ft | 490 kts | 302° |
| 2026-05-07 23:36 | 20.13696 | 90.31167 | 31879 ft | 490 kts | 302° |
| 2026-05-07 23:37 | 20.17140 | 90.26328 | 31875 ft | 489 kts | 302° |
| 2026-05-07 23:37 | 20.21245 | 90.20555 | 31868 ft | 489 kts | 302° |
| 2026-05-07 23:38 | 20.25344 | 90.14783 | 31870 ft | 488 kts | 302° |
| 2026-05-07 23:38 | 20.29434 | 90.09019 | 31873 ft | 487 kts | 302° |
| 2026-05-07 23:39 | 20.33519 | 90.03257 | 31872 ft | 487 kts | 302° |
| 2026-05-07 23:39 | 20.37599 | 89.97496 | 31875 ft | 487 kts | 302° |
| 2026-05-07 23:40 | 20.41675 | 89.91734 | 31874 ft | 487 kts | 302° |
| 2026-05-07 23:40 | 20.45749 | 89.85969 | 31872 ft | 486 kts | 302° |
| 2026-05-07 23:41 | 20.49816 | 89.80210 | 31885 ft | 486 kts | 302° |
| 2026-05-07 23:41 | 20.53846 | 89.74497 | 31881 ft | 484 kts | 302° |
| 2026-05-07 23:42 | 20.57894 | 89.68753 | 31867 ft | 483 kts | 302° |
| 2026-05-07 23:42 | 20.61926 | 89.63025 | 31880 ft | 483 kts | 302° |
| 2026-05-07 23:43 | 20.65954 | 89.57296 | 31882 ft | 482 kts | 302° |
| 2026-05-07 23:43 | 20.69980 | 89.51564 | 31883 ft | 482 kts | 301° |
| 2026-05-07 23:44 | 20.74004 | 89.45831 | 31870 ft | 483 kts | 301° |
| 2026-05-07 23:44 | 20.78030 | 89.40088 | 31883 ft | 483 kts | 301° |
| 2026-05-07 23:45 | 20.82057 | 89.34337 | 31882 ft | 484 kts | 301° |
| 2026-05-07 23:45 | 20.86088 | 89.28576 | 31876 ft | 484 kts | 301° |
| 2026-05-07 23:46 | 20.90310 | 89.22964 | 31871 ft | 490 kts | 311° |
| 2026-05-07 23:46 | 20.95881 | 89.18630 | 31880 ft | 503 kts | 326° |
| 2026-05-07 23:47 | 21.02404 | 89.15716 | 31879 ft | 510 kts | 333° |
| 2026-05-07 23:47 | 21.09035 | 89.13016 | 31880 ft | 510 kts | 333° |
| 2026-05-07 23:48 | 21.15652 | 89.10266 | 31900 ft | 510 kts | 332° |
| 2026-05-07 23:48 | 21.22247 | 89.07468 | 31884 ft | 509 kts | 332° |
| 2026-05-07 23:49 | 21.28820 | 89.04661 | 31876 ft | 508 kts | 332° |
| 2026-05-07 23:49 | 21.35378 | 89.01858 | 31878 ft | 507 kts | 332° |
| 2026-05-07 23:50 | 21.41924 | 88.99061 | 31878 ft | 506 kts | 332° |
| 2026-05-07 23:50 | 21.48459 | 88.96267 | 31900 ft | 506 kts | 332° |
| 2026-05-07 23:51 | 21.54956 | 88.93487 | 31883 ft | 505 kts | 332° |
| 2026-05-07 23:51 | 21.61489 | 88.90689 | 31875 ft | 505 kts | 332° |
| 2026-05-07 23:52 | 21.68018 | 88.87890 | 31884 ft | 505 kts | 332° |
| 2026-05-07 23:52 | 21.74545 | 88.85088 | 31883 ft | 505 kts | 332° |
| 2026-05-07 23:53 | 21.81078 | 88.82282 | 31904 ft | 505 kts | 332° |
| 2026-05-07 23:53 | 21.87616 | 88.79470 | 31897 ft | 506 kts | 331° |
| 2026-05-07 23:54 | 21.94149 | 88.76658 | 31876 ft | 506 kts | 331° |
| 2026-05-07 23:54 | 22.00682 | 88.73844 | 31874 ft | 506 kts | 331° |
| 2026-05-07 23:55 | 22.07212 | 88.71027 | 31889 ft | 505 kts | 331° |
| 2026-05-07 23:55 | 22.13742 | 88.68208 | 31876 ft | 505 kts | 331° |
| 2026-05-07 23:56 | 22.20271 | 88.65386 | 31888 ft | 505 kts | 331° |
| 2026-05-07 23:56 | 22.26797 | 88.62563 | 31885 ft | 505 kts | 331° |
| 2026-05-07 23:57 | 22.33322 | 88.59737 | 31889 ft | 505 kts | 331° |
| 2026-05-07 23:57 | 22.39852 | 88.56906 | 31876 ft | 505 kts | 331° |
| 2026-05-07 23:58 | 22.46332 | 88.54095 | 31914 ft | 505 kts | 331° |
| 2026-05-07 23:58 | 22.52864 | 88.51257 | 31885 ft | 506 kts | 331° |
| 2026-05-07 23:59 | 22.59387 | 88.48420 | 31885 ft | 505 kts | 331° |
| 2026-05-07 23:59 | 22.65674 | 88.45209 | 31877 ft | 490 kts | 317° |
| 2026-05-08 00:00 | 22.68261 | 88.42880 | 31889 ft | 479 kts | 308° |
| 2026-05-08 00:00 | 22.70445 | 88.40201 | 31894 ft | 471 kts | 299° |
| 2026-05-08 00:00 | 22.73842 | 88.34242 | 31889 ft | 466 kts | 295° |
| 2026-05-08 00:01 | 22.77217 | 88.28220 | 31892 ft | 469 kts | 295° |
| 2026-05-08 00:01 | 22.80642 | 88.22189 | 31898 ft | 471 kts | 295° |
| 2026-05-08 00:02 | 22.84088 | 88.16154 | 31895 ft | 471 kts | 295° |
| 2026-05-08 00:02 | 22.87532 | 88.10122 | 31897 ft | 470 kts | 295° |
| 2026-05-08 00:03 | 22.90964 | 88.04100 | 31896 ft | 469 kts | 295° |
| 2026-05-08 00:03 | 22.94384 | 87.98090 | 31896 ft | 467 kts | 295° |
| 2026-05-08 00:04 | 22.97792 | 87.92092 | 31899 ft | 466 kts | 295° |
| 2026-05-08 00:04 | 23.01193 | 87.86099 | 31901 ft | 466 kts | 295° |
| 2026-05-08 00:05 | 23.04588 | 87.80109 | 31902 ft | 466 kts | 295° |
| 2026-05-08 00:05 | 23.07981 | 87.74116 | 31904 ft | 466 kts | 295° |
| 2026-05-08 00:06 | 23.11378 | 87.68111 | 31916 ft | 467 kts | 295° |
| 2026-05-08 00:06 | 23.14772 | 87.62103 | 31913 ft | 466 kts | 295° |
| 2026-05-08 00:07 | 23.18160 | 87.56100 | 31909 ft | 466 kts | 295° |
| 2026-05-08 00:07 | 23.21538 | 87.50106 | 31913 ft | 465 kts | 294° |
| 2026-05-08 00:08 | 23.24914 | 87.44108 | 31912 ft | 465 kts | 294° |
| 2026-05-08 00:08 | 23.28284 | 87.38116 | 31915 ft | 464 kts | 294° |
| 2026-05-08 00:09 | 23.31649 | 87.32122 | 31921 ft | 464 kts | 294° |
| 2026-05-08 00:09 | 23.35012 | 87.26127 | 31920 ft | 464 kts | 294° |
| 2026-05-08 00:10 | 23.38351 | 87.20167 | 31919 ft | 464 kts | 294° |
| 2026-05-08 00:10 | 23.41712 | 87.14161 | 31938 ft | 464 kts | 294° |
| 2026-05-08 00:11 | 23.45067 | 87.08157 | 31928 ft | 464 kts | 294° |
| 2026-05-08 00:11 | 23.48416 | 87.02161 | 31926 ft | 462 kts | 294° |
| 2026-05-08 00:12 | 23.51764 | 86.96188 | 31927 ft | 462 kts | 294° |
| 2026-05-08 00:12 | 23.55108 | 86.90226 | 31934 ft | 461 kts | 294° |
| 2026-05-08 00:13 | 23.58448 | 86.84260 | 31935 ft | 460 kts | 294° |
| 2026-05-08 00:13 | 23.61778 | 86.78303 | 31940 ft | 460 kts | 294° |
| 2026-05-08 00:14 | 23.65106 | 86.72346 | 31932 ft | 460 kts | 294° |
| 2026-05-08 00:14 | 23.68431 | 86.66370 | 31934 ft | 461 kts | 294° |
| 2026-05-08 00:15 | 23.71766 | 86.60383 | 31969 ft | 462 kts | 294° |
| 2026-05-08 00:15 | 23.75104 | 86.54382 | 31957 ft | 462 kts | 294° |
| 2026-05-08 00:16 | 23.78413 | 86.48426 | 31949 ft | 461 kts | 294° |
| 2026-05-08 00:16 | 23.81767 | 86.42461 | 31946 ft | 462 kts | 296° |
| 2026-05-08 00:17 | 23.85404 | 86.36671 | 31942 ft | 462 kts | 297° |
| 2026-05-08 00:17 | 23.89081 | 86.30910 | 31951 ft | 462 kts | 297° |
| 2026-05-08 00:18 | 23.92742 | 86.25144 | 31945 ft | 462 kts | 297° |
| 2026-05-08 00:18 | 23.96386 | 86.19372 | 31943 ft | 461 kts | 297° |
| 2026-05-08 00:19 | 24.00023 | 86.13597 | 31949 ft | 460 kts | 297° |
| 2026-05-08 00:19 | 24.03649 | 86.07829 | 31963 ft | 461 kts | 297° |
| 2026-05-08 00:20 | 24.07285 | 86.02039 | 31961 ft | 462 kts | 297° |
| 2026-05-08 00:20 | 24.10901 | 85.96277 | 31947 ft | 462 kts | 297° |
| 2026-05-08 00:21 | 24.14541 | 85.90471 | 31950 ft | 463 kts | 297° |
| 2026-05-08 00:21 | 24.18184 | 85.84654 | 31956 ft | 463 kts | 297° |
| 2026-05-08 00:22 | 24.21821 | 85.78838 | 31944 ft | 463 kts | 297° |
| 2026-05-08 00:22 | 24.25453 | 85.73023 | 31943 ft | 462 kts | 297° |
| 2026-05-08 00:23 | 24.29082 | 85.67207 | 31953 ft | 462 kts | 297° |
| 2026-05-08 00:23 | 24.32707 | 85.61390 | 31959 ft | 462 kts | 297° |
| 2026-05-08 00:24 | 24.35722 | 85.56545 | 31949 ft | 463 kts | 297° |
| 2026-05-08 00:24 | 24.39348 | 85.50715 | 31938 ft | 463 kts | 297° |
| 2026-05-08 00:25 | 24.42975 | 85.44874 | 31942 ft | 463 kts | 297° |
| 2026-05-08 00:25 | 24.46599 | 85.39032 | 31936 ft | 463 kts | 297° |
| 2026-05-08 00:26 | 24.50219 | 85.33189 | 31927 ft | 463 kts | 297° |
| 2026-05-08 00:26 | 24.53838 | 85.27341 | 31930 ft | 463 kts | 297° |
| 2026-05-08 00:27 | 24.57450 | 85.21498 | 31914 ft | 462 kts | 297° |
| 2026-05-08 00:27 | 24.61059 | 85.15651 | 31915 ft | 462 kts | 297° |
| 2026-05-08 00:28 | 24.64665 | 85.09801 | 31914 ft | 463 kts | 297° |
| 2026-05-08 00:28 | 24.68274 | 85.03941 | 31939 ft | 463 kts | 298° |
| 2026-05-08 00:29 | 24.71889 | 84.98065 | 31914 ft | 463 kts | 298° |
| 2026-05-08 00:29 | 24.75037 | 84.91956 | 31912 ft | 456 kts | 289° |
| 2026-05-08 00:30 | 24.77320 | 84.85502 | 31917 ft | 452 kts | 285° |
| 2026-05-08 00:30 | 24.79555 | 84.79026 | 31909 ft | 453 kts | 286° |
| 2026-05-08 00:31 | 24.81809 | 84.72551 | 31904 ft | 453 kts | 286° |
| 2026-05-08 00:31 | 24.84053 | 84.66112 | 31905 ft | 453 kts | 286° |
| 2026-05-08 00:32 | 24.86326 | 84.59585 | 31896 ft | 454 kts | 286° |
| 2026-05-08 00:32 | 24.88566 | 84.53141 | 31889 ft | 453 kts | 286° |
| 2026-05-08 00:33 | 24.90817 | 84.46655 | 31884 ft | 453 kts | 286° |
| 2026-05-08 00:33 | 24.93064 | 84.40167 | 31894 ft | 454 kts | 287° |
| 2026-05-08 00:34 | 24.95311 | 84.33667 | 31885 ft | 454 kts | 287° |
| 2026-05-08 00:34 | 24.97558 | 84.27160 | 31892 ft | 455 kts | 287° |
| 2026-05-08 00:35 | 24.99806 | 84.20641 | 31879 ft | 455 kts | 287° |
| 2026-05-08 00:35 | 25.02048 | 84.14128 | 31879 ft | 454 kts | 287° |
| 2026-05-08 00:36 | 25.04285 | 84.07618 | 31879 ft | 454 kts | 287° |
| 2026-05-08 00:36 | 25.06516 | 84.01115 | 31876 ft | 453 kts | 287° |
| 2026-05-08 00:37 | 25.08743 | 83.94611 | 31877 ft | 453 kts | 287° |
| 2026-05-08 00:38 | 25.12077 | 83.84855 | 31875 ft | 453 kts | 287° |
| 2026-05-08 00:38 | 25.14296 | 83.78350 | 31872 ft | 453 kts | 287° |
| 2026-05-08 00:39 | 25.16514 | 83.71838 | 31872 ft | 453 kts | 287° |
| 2026-05-08 00:39 | 25.18728 | 83.65326 | 31871 ft | 453 kts | 287° |
| 2026-05-08 00:40 | 25.20939 | 83.58811 | 31869 ft | 453 kts | 287° |
| 2026-05-08 00:40 | 25.23134 | 83.52331 | 31863 ft | 453 kts | 287° |
| 2026-05-08 00:41 | 25.25353 | 83.45771 | 31862 ft | 453 kts | 287° |
| 2026-05-08 00:41 | 25.27556 | 83.39248 | 31862 ft | 453 kts | 287° |
| 2026-05-08 00:42 | 25.29756 | 83.32725 | 31863 ft | 453 kts | 287° |
| 2026-05-08 00:42 | 25.31937 | 83.26243 | 31860 ft | 453 kts | 287° |
| 2026-05-08 00:43 | 25.34130 | 83.19718 | 31864 ft | 453 kts | 287° |
| 2026-05-08 00:43 | 25.36321 | 83.13187 | 31866 ft | 453 kts | 287° |
| 2026-05-08 00:44 | 25.38506 | 83.06661 | 31874 ft | 452 kts | 287° |
| 2026-05-08 00:44 | 25.40688 | 83.00134 | 31881 ft | 452 kts | 287° |
| 2026-05-08 00:45 | 25.42867 | 82.93606 | 31885 ft | 452 kts | 287° |
| 2026-05-08 00:45 | 25.45292 | 82.87175 | 31878 ft | 456 kts | 294° |
| 2026-05-08 00:46 | 25.48599 | 82.81154 | 31888 ft | 461 kts | 302° |
| 2026-05-08 00:46 | 25.52458 | 82.75481 | 31880 ft | 461 kts | 303° |
| 2026-05-08 00:47 | 25.56331 | 82.69819 | 31874 ft | 461 kts | 303° |
| 2026-05-08 00:47 | 25.60185 | 82.64141 | 31870 ft | 460 kts | 303° |
| 2026-05-08 00:48 | 25.64018 | 82.58464 | 31864 ft | 460 kts | 302° |
| 2026-05-08 00:48 | 25.67843 | 82.52783 | 31858 ft | 460 kts | 302° |
| 2026-05-08 00:49 | 25.71638 | 82.47141 | 31864 ft | 460 kts | 302° |
| 2026-05-08 00:49 | 25.75459 | 82.41455 | 31890 ft | 460 kts | 302° |
| 2026-05-08 00:50 | 25.79281 | 82.35759 | 31862 ft | 460 kts | 303° |
| 2026-05-08 00:50 | 25.83107 | 82.30052 | 31864 ft | 461 kts | 303° |
| 2026-05-08 00:51 | 25.86932 | 82.24340 | 31861 ft | 461 kts | 303° |
| 2026-05-08 00:51 | 25.90754 | 82.18625 | 31864 ft | 461 kts | 303° |
| 2026-05-08 00:52 | 25.94577 | 82.12899 | 31868 ft | 461 kts | 303° |
| 2026-05-08 00:52 | 25.98396 | 82.07174 | 31866 ft | 461 kts | 303° |
| 2026-05-08 00:53 | 26.02212 | 82.01446 | 31867 ft | 461 kts | 303° |
| 2026-05-08 00:53 | 26.06025 | 81.95716 | 31877 ft | 461 kts | 303° |
| 2026-05-08 00:54 | 26.09838 | 81.89977 | 31871 ft | 461 kts | 303° |
| 2026-05-08 00:54 | 26.13644 | 81.84244 | 31871 ft | 460 kts | 303° |
| 2026-05-08 00:55 | 26.17445 | 81.78510 | 31873 ft | 460 kts | 303° |
| 2026-05-08 00:55 | 26.21243 | 81.72774 | 31875 ft | 460 kts | 303° |
| 2026-05-08 00:56 | 26.25033 | 81.67041 | 31873 ft | 460 kts | 303° |
| 2026-05-08 00:56 | 26.28820 | 81.61307 | 31883 ft | 458 kts | 303° |
| 2026-05-08 00:57 | 26.32563 | 81.55633 | 31894 ft | 456 kts | 303° |
| 2026-05-08 00:57 | 26.36316 | 81.49935 | 31876 ft | 455 kts | 303° |
| 2026-05-08 00:58 | 26.40058 | 81.44248 | 31883 ft | 455 kts | 303° |
| 2026-05-08 00:58 | 26.43800 | 81.38552 | 31878 ft | 455 kts | 303° |
| 2026-05-08 00:59 | 26.47546 | 81.32845 | 31886 ft | 456 kts | 303° |
| 2026-05-08 00:59 | 26.51288 | 81.27134 | 31888 ft | 456 kts | 304° |
| 2026-05-08 01:00 | 26.55030 | 81.21419 | 31869 ft | 456 kts | 304° |
| 2026-05-08 01:00 | 26.58766 | 81.15706 | 31888 ft | 455 kts | 304° |
| 2026-05-08 01:01 | 26.62495 | 81.09995 | 31886 ft | 455 kts | 304° |
| 2026-05-08 01:01 | 26.66226 | 81.04272 | 31876 ft | 456 kts | 304° |
| 2026-05-08 01:02 | 26.69963 | 80.98534 | 31880 ft | 457 kts | 304° |
| 2026-05-08 01:02 | 26.73701 | 80.92788 | 31885 ft | 457 kts | 304° |
| 2026-05-08 01:03 | 26.77638 | 80.87200 | 31880 ft | 458 kts | 310° |
| 2026-05-08 01:03 | 26.81986 | 80.81998 | 31885 ft | 457 kts | 310° |
| 2026-05-08 01:04 | 26.86319 | 80.76806 | 31879 ft | 455 kts | 310° |
| 2026-05-08 01:04 | 26.90632 | 80.71598 | 31892 ft | 457 kts | 310° |
| 2026-05-08 01:05 | 26.94955 | 80.66359 | 31885 ft | 459 kts | 310° |
| 2026-05-08 01:05 | 26.99297 | 80.61088 | 31873 ft | 460 kts | 310° |
| 2026-05-08 01:06 | 27.03645 | 80.55804 | 31875 ft | 461 kts | 310° |
| 2026-05-08 01:06 | 27.07993 | 80.50515 | 31873 ft | 460 kts | 310° |
| 2026-05-08 01:07 | 27.12328 | 80.45235 | 31869 ft | 459 kts | 310° |
| 2026-05-08 01:07 | 27.16648 | 80.39967 | 31884 ft | 458 kts | 310° |
| 2026-05-08 01:08 | 27.20930 | 80.34738 | 31875 ft | 458 kts | 310° |
| 2026-05-08 01:08 | 27.25238 | 80.29471 | 31872 ft | 458 kts | 310° |
| 2026-05-08 01:09 | 27.29549 | 80.24194 | 31873 ft | 458 kts | 310° |
| 2026-05-08 01:09 | 27.33863 | 80.18906 | 31872 ft | 459 kts | 310° |
| 2026-05-08 01:10 | 27.38176 | 80.13614 | 31875 ft | 459 kts | 310° |
| 2026-05-08 01:10 | 27.41761 | 80.09210 | 31871 ft | 459 kts | 310° |
| 2026-05-08 01:11 | 27.46067 | 80.03913 | 31875 ft | 459 kts | 310° |
| 2026-05-08 01:11 | 27.50382 | 79.98600 | 31874 ft | 459 kts | 310° |
| 2026-05-08 01:12 | 27.54690 | 79.93288 | 31868 ft | 460 kts | 310° |
| 2026-05-08 01:12 | 27.59004 | 79.87962 | 31872 ft | 460 kts | 310° |
| 2026-05-08 01:13 | 27.63317 | 79.82631 | 31869 ft | 460 kts | 310° |
| 2026-05-08 01:13 | 27.67626 | 79.77299 | 31868 ft | 460 kts | 310° |
| 2026-05-08 01:14 | 27.71928 | 79.71967 | 31875 ft | 460 kts | 310° |
| 2026-05-08 01:14 | 27.76236 | 79.66622 | 31869 ft | 460 kts | 310° |
| 2026-05-08 01:15 | 27.80542 | 79.61271 | 31869 ft | 460 kts | 310° |
| 2026-05-08 01:15 | 27.84849 | 79.55914 | 31869 ft | 461 kts | 310° |
| 2026-05-08 01:16 | 27.89127 | 79.50586 | 31869 ft | 461 kts | 310° |
| 2026-05-08 01:16 | 27.93435 | 79.45214 | 31870 ft | 461 kts | 310° |
| 2026-05-08 01:17 | 27.97740 | 79.39837 | 31862 ft | 461 kts | 310° |
| 2026-05-08 01:17 | 28.02040 | 79.34461 | 31873 ft | 460 kts | 310° |
| 2026-05-08 01:18 | 28.06333 | 79.29086 | 31871 ft | 460 kts | 310° |
| 2026-05-08 01:18 | 28.10625 | 79.23706 | 31868 ft | 460 kts | 310° |
| 2026-05-08 01:19 | 28.14914 | 79.18323 | 31870 ft | 460 kts | 310° |
| 2026-05-08 01:19 | 28.19198 | 79.12938 | 31868 ft | 460 kts | 310° |
| 2026-05-08 01:20 | 28.23479 | 79.07550 | 31893 ft | 460 kts | 310° |
| 2026-05-08 01:20 | 28.27768 | 79.02146 | 31875 ft | 461 kts | 310° |
| 2026-05-08 01:21 | 28.32051 | 78.96741 | 31876 ft | 461 kts | 310° |
| 2026-05-08 01:21 | 28.36337 | 78.91326 | 31876 ft | 461 kts | 310° |
| 2026-05-08 01:22 | 28.40594 | 78.85941 | 31877 ft | 461 kts | 310° |
| 2026-05-08 01:22 | 28.44872 | 78.80520 | 31885 ft | 461 kts | 310° |
| 2026-05-08 01:23 | 28.49095 | 78.75048 | 31900 ft | 460 kts | 308° |
| 2026-05-08 01:23 | 28.53129 | 78.69395 | 31892 ft | 461 kts | 307° |
| 2026-05-08 01:24 | 28.57140 | 78.63703 | 31889 ft | 461 kts | 308° |
| 2026-05-08 01:24 | 28.61168 | 78.58031 | 31894 ft | 461 kts | 308° |
| 2026-05-08 01:25 | 28.65211 | 78.52366 | 31899 ft | 461 kts | 308° |
| 2026-05-08 01:25 | 28.69253 | 78.46707 | 31898 ft | 460 kts | 308° |
| 2026-05-08 01:26 | 28.73290 | 78.41045 | 31895 ft | 460 kts | 308° |
| 2026-05-08 01:26 | 28.77325 | 78.35377 | 31908 ft | 461 kts | 308° |
| 2026-05-08 01:27 | 28.81361 | 78.29700 | 31905 ft | 461 kts | 308° |
| 2026-05-08 01:27 | 28.85397 | 78.24015 | 31900 ft | 461 kts | 308° |
| 2026-05-08 01:28 | 28.89430 | 78.18326 | 31898 ft | 461 kts | 308° |
| 2026-05-08 01:28 | 28.93438 | 78.12664 | 31903 ft | 461 kts | 308° |
| 2026-05-08 01:29 | 28.97470 | 78.06962 | 31905 ft | 462 kts | 308° |
| 2026-05-08 01:29 | 29.01498 | 78.01256 | 31917 ft | 462 kts | 308° |
| 2026-05-08 01:30 | 29.05561 | 77.95493 | 31891 ft | 463 kts | 308° |
| 2026-05-08 01:30 | 29.09574 | 77.89794 | 31904 ft | 463 kts | 308° |
| 2026-05-08 01:31 | 29.13607 | 77.84058 | 31902 ft | 463 kts | 308° |
| 2026-05-08 01:31 | 29.17634 | 77.78322 | 31902 ft | 462 kts | 308° |
| 2026-05-08 01:32 | 29.21656 | 77.72586 | 31903 ft | 462 kts | 308° |
| 2026-05-08 01:32 | 29.25670 | 77.66853 | 31920 ft | 461 kts | 308° |
| 2026-05-08 01:33 | 29.29686 | 77.61108 | 31914 ft | 462 kts | 308° |
| 2026-05-08 01:33 | 29.33701 | 77.55358 | 31910 ft | 462 kts | 308° |
| 2026-05-08 01:34 | 29.37713 | 77.49604 | 31904 ft | 462 kts | 308° |
| 2026-05-08 01:34 | 29.41726 | 77.43841 | 31902 ft | 462 kts | 308° |
| 2026-05-08 01:35 | 29.45730 | 77.38081 | 31905 ft | 462 kts | 308° |
| 2026-05-08 01:35 | 29.49731 | 77.32320 | 31908 ft | 461 kts | 308° |
| 2026-05-08 01:36 | 29.53731 | 77.26550 | 31892 ft | 462 kts | 308° |
| 2026-05-08 01:36 | 29.57705 | 77.20809 | 31903 ft | 462 kts | 308° |
| 2026-05-08 01:37 | 29.61703 | 77.15027 | 31905 ft | 462 kts | 308° |
| 2026-05-08 01:37 | 29.65690 | 77.09251 | 31906 ft | 461 kts | 308° |
| 2026-05-08 01:38 | 29.69674 | 77.03472 | 31906 ft | 461 kts | 308° |
| 2026-05-08 01:38 | 29.73650 | 76.97698 | 31906 ft | 460 kts | 308° |
| 2026-05-08 01:39 | 29.77626 | 76.91913 | 31915 ft | 461 kts | 308° |
| 2026-05-08 01:39 | 29.81602 | 76.86121 | 31885 ft | 462 kts | 308° |
| 2026-05-08 01:40 | 29.85581 | 76.80317 | 31908 ft | 461 kts | 308° |
| 2026-05-08 01:40 | 29.89556 | 76.74509 | 31901 ft | 461 kts | 308° |
| 2026-05-08 01:41 | 29.93523 | 76.68706 | 31904 ft | 461 kts | 308° |
| 2026-05-08 01:41 | 29.97491 | 76.62892 | 31899 ft | 461 kts | 308° |
| 2026-05-08 01:42 | 30.01451 | 76.57082 | 31912 ft | 461 kts | 308° |
| 2026-05-08 01:42 | 30.05412 | 76.51262 | 31909 ft | 461 kts | 308° |
| 2026-05-08 01:43 | 30.09363 | 76.45447 | 31896 ft | 460 kts | 308° |
| 2026-05-08 01:43 | 30.13307 | 76.39635 | 31895 ft | 459 kts | 308° |
| 2026-05-08 01:44 | 30.17241 | 76.33830 | 31895 ft | 459 kts | 308° |
| 2026-05-08 01:44 | 30.21170 | 76.28023 | 31898 ft | 458 kts | 308° |
| 2026-05-08 01:45 | 30.25092 | 76.22218 | 31912 ft | 458 kts | 308° |
| 2026-05-08 01:45 | 30.29020 | 76.16396 | 31900 ft | 460 kts | 308° |
| 2026-05-08 01:46 | 30.32953 | 76.10558 | 31893 ft | 460 kts | 308° |
| 2026-05-08 01:46 | 30.36863 | 76.04746 | 31889 ft | 460 kts | 308° |
| 2026-05-08 01:47 | 30.40794 | 75.98894 | 31890 ft | 460 kts | 308° |
| 2026-05-08 01:47 | 30.44723 | 75.93036 | 31890 ft | 460 kts | 308° |
| 2026-05-08 01:48 | 30.50608 | 75.84245 | 31886 ft | 460 kts | 308° |
| 2026-05-08 01:48 | 30.54524 | 75.78385 | 31873 ft | 460 kts | 308° |
| 2026-05-08 01:49 | 30.58436 | 75.72523 | 31881 ft | 459 kts | 308° |
| 2026-05-08 01:49 | 30.62337 | 75.66669 | 31884 ft | 458 kts | 308° |
| 2026-05-08 01:50 | 30.66230 | 75.60817 | 31882 ft | 458 kts | 308° |
| 2026-05-08 01:50 | 30.70120 | 75.54962 | 31882 ft | 458 kts | 308° |
| 2026-05-08 01:51 | 30.74009 | 75.49098 | 31880 ft | 459 kts | 308° |
| 2026-05-08 01:51 | 30.77906 | 75.43215 | 31877 ft | 460 kts | 308° |
| 2026-05-08 01:52 | 30.81805 | 75.37319 | 31874 ft | 460 kts | 308° |
| 2026-05-08 01:52 | 30.85702 | 75.31419 | 31875 ft | 460 kts | 308° |
| 2026-05-08 01:53 | 30.89597 | 75.25511 | 31876 ft | 460 kts | 308° |
| 2026-05-08 01:53 | 30.93487 | 75.19603 | 31873 ft | 460 kts | 308° |
| 2026-05-08 01:54 | 30.97377 | 75.13685 | 31872 ft | 460 kts | 308° |
| 2026-05-08 01:54 | 31.01269 | 75.07757 | 31878 ft | 460 kts | 308° |
| 2026-05-08 01:55 | 31.05157 | 75.01823 | 31869 ft | 460 kts | 308° |
| 2026-05-08 01:55 | 31.09040 | 74.95891 | 31873 ft | 460 kts | 308° |
| 2026-05-08 01:56 | 31.12892 | 74.89995 | 31873 ft | 460 kts | 308° |
| 2026-05-08 01:56 | 31.16764 | 74.84061 | 31873 ft | 460 kts | 308° |
| 2026-05-08 01:57 | 31.20639 | 74.78112 | 31865 ft | 460 kts | 308° |
| 2026-05-08 01:57 | 31.24517 | 74.72149 | 31867 ft | 461 kts | 308° |
| 2026-05-08 01:58 | 31.28397 | 74.66174 | 31874 ft | 462 kts | 308° |
| 2026-05-08 01:58 | 31.32278 | 74.60191 | 31873 ft | 462 kts | 308° |
| 2026-05-08 01:59 | 31.35843 | 74.55481 | 31874 ft | 461 kts | 316° |
| 2026-05-08 01:59 | 31.40709 | 74.50683 | 31891 ft | 461 kts | 321° |
| 2026-05-08 02:00 | 31.45733 | 74.45928 | 31885 ft | 461 kts | 321° |
| 2026-05-08 02:00 | 31.50698 | 74.41161 | 31885 ft | 462 kts | 321° |
| 2026-05-08 02:01 | 31.55677 | 74.36474 | 31886 ft | 462 kts | 322° |
| 2026-05-08 02:01 | 31.60752 | 74.31852 | 31880 ft | 462 kts | 322° |
| 2026-05-08 02:02 | 31.65856 | 74.27188 | 31877 ft | 462 kts | 322° |
| 2026-05-08 02:02 | 31.70891 | 74.22556 | 31871 ft | 463 kts | 322° |
| 2026-05-08 02:03 | 31.75962 | 74.17877 | 31872 ft | 464 kts | 322° |
| 2026-05-08 02:03 | 31.81039 | 74.13188 | 31871 ft | 464 kts | 322° |
| 2026-05-08 02:04 | 31.86121 | 74.08501 | 31874 ft | 464 kts | 322° |
| 2026-05-08 02:04 | 31.91260 | 74.03899 | 31869 ft | 464 kts | 323° |
| 2026-05-08 02:05 | 31.96421 | 73.99311 | 31865 ft | 465 kts | 323° |
| 2026-05-08 02:05 | 32.01573 | 73.94710 | 31873 ft | 465 kts | 323° |
| 2026-05-08 02:06 | 32.06719 | 73.90093 | 31875 ft | 465 kts | 323° |
| 2026-05-08 02:06 | 32.11861 | 73.85470 | 31885 ft | 465 kts | 323° |
| 2026-05-08 02:07 | 32.17001 | 73.80843 | 31877 ft | 465 kts | 323° |
| 2026-05-08 02:07 | 32.22144 | 73.76207 | 31873 ft | 465 kts | 323° |
| 2026-05-08 02:08 | 32.27286 | 73.71564 | 31874 ft | 465 kts | 323° |
| 2026-05-08 02:08 | 32.32424 | 73.66919 | 31876 ft | 465 kts | 323° |
| 2026-05-08 02:09 | 32.37567 | 73.62263 | 31870 ft | 466 kts | 323° |
| 2026-05-08 02:09 | 32.42712 | 73.57598 | 31879 ft | 466 kts | 323° |
| 2026-05-08 02:10 | 32.47860 | 73.52922 | 31878 ft | 467 kts | 322° |
| 2026-05-08 02:10 | 32.53018 | 73.48231 | 31877 ft | 467 kts | 322° |
| 2026-05-08 02:11 | 32.58178 | 73.43532 | 31887 ft | 468 kts | 322° |
| 2026-05-08 02:11 | 32.63336 | 73.38826 | 31885 ft | 468 kts | 322° |
| 2026-05-08 02:12 | 32.68501 | 73.34106 | 31883 ft | 469 kts | 322° |
| 2026-05-08 02:12 | 32.73665 | 73.29384 | 31874 ft | 469 kts | 323° |
| 2026-05-08 02:13 | 32.79138 | 73.25275 | 31886 ft | 469 kts | 333° |
| 2026-05-08 02:13 | 32.85109 | 73.22125 | 31891 ft | 469 kts | 336° |
| 2026-05-08 02:14 | 32.91105 | 73.19041 | 31891 ft | 470 kts | 336° |
| 2026-05-08 02:14 | 32.97097 | 73.15918 | 31912 ft | 471 kts | 335° |
| 2026-05-08 02:15 | 33.00102 | 73.14341 | 32133 ft | 472 kts | 335° |
| 2026-05-08 02:15 | 33.03101 | 73.12764 | 32528 ft | 469 kts | 335° |
| 2026-05-08 02:15 | 33.06071 | 73.11200 | 32974 ft | 465 kts | 335° |
| 2026-05-08 02:15 | 33.09016 | 73.09649 | 33408 ft | 461 kts | 335° |
| 2026-05-08 02:16 | 33.11938 | 73.08109 | 33789 ft | 459 kts | 334° |
| 2026-05-08 02:16 | 33.14865 | 73.06564 | 33845 ft | 461 kts | 334° |
| 2026-05-08 02:16 | 33.20726 | 73.03469 | 33894 ft | 460 kts | 334° |
| 2026-05-08 02:17 | 33.26559 | 73.00386 | 33895 ft | 457 kts | 334° |
| 2026-05-08 02:17 | 33.32364 | 72.97312 | 33898 ft | 455 kts | 334° |
| 2026-05-08 02:18 | 33.38150 | 72.94243 | 33891 ft | 455 kts | 334° |
| 2026-05-08 02:18 | 33.43936 | 72.91170 | 33907 ft | 456 kts | 334° |
| 2026-05-08 02:19 | 33.49586 | 72.87803 | 33902 ft | 452 kts | 320° |
| 2026-05-08 02:19 | 33.51763 | 72.85107 | 33918 ft | 452 kts | 304° |
| 2026-05-08 02:19 | 33.53289 | 72.81811 | 33929 ft | 454 kts | 294° |
| 2026-05-08 02:20 | 33.54305 | 72.78216 | 33918 ft | 458 kts | 283° |
| 2026-05-08 02:20 | 33.54611 | 72.74406 | 33913 ft | 461 kts | 272° |
| 2026-05-08 02:20 | 33.54497 | 72.66730 | 33913 ft | 466 kts | 271° |
| 2026-05-08 02:21 | 33.54349 | 72.58892 | 33899 ft | 469 kts | 271° |
| 2026-05-08 02:21 | 33.54274 | 72.51070 | 33897 ft | 470 kts | 272° |
| 2026-05-08 02:22 | 33.54234 | 72.43297 | 33883 ft | 469 kts | 272° |
| 2026-05-08 02:22 | 33.54194 | 72.35486 | 33879 ft | 468 kts | 272° |
| 2026-05-08 02:23 | 33.54148 | 72.27707 | 33878 ft | 465 kts | 272° |
| 2026-05-08 02:23 | 33.54094 | 72.19965 | 33873 ft | 464 kts | 272° |
| 2026-05-08 02:24 | 33.54036 | 72.12241 | 33884 ft | 463 kts | 272° |
| 2026-05-08 02:24 | 33.53974 | 72.04523 | 33891 ft | 463 kts | 272° |
| 2026-05-08 02:25 | 33.53906 | 71.96798 | 33891 ft | 464 kts | 272° |
| 2026-05-08 02:25 | 33.53834 | 71.89056 | 33871 ft | 465 kts | 272° |
| 2026-05-08 02:26 | 33.53600 | 71.81305 | 33891 ft | 466 kts | 269° |
| 2026-05-08 02:26 | 33.53129 | 71.73545 | 33897 ft | 467 kts | 269° |
| 2026-05-08 02:27 | 33.52644 | 71.65774 | 33895 ft | 468 kts | 269° |
| 2026-05-08 02:27 | 33.52172 | 71.57996 | 33901 ft | 468 kts | 269° |
| 2026-05-08 02:28 | 33.51703 | 71.50220 | 33901 ft | 467 kts | 269° |
| 2026-05-08 02:28 | 33.51232 | 71.42461 | 33904 ft | 467 kts | 269° |
| 2026-05-08 02:29 | 33.50759 | 71.34753 | 33902 ft | 466 kts | 269° |
| 2026-05-08 02:29 | 33.50278 | 71.27014 | 33905 ft | 465 kts | 269° |
| 2026-05-08 02:30 | 33.49794 | 71.19298 | 33921 ft | 463 kts | 269° |
| 2026-05-08 02:30 | 33.49305 | 71.11602 | 33929 ft | 464 kts | 269° |
| 2026-05-08 02:31 | 33.49149 | 71.03940 | 33916 ft | 455 kts | 284° |
| 2026-05-08 02:31 | 33.50122 | 71.00371 | 33964 ft | 450 kts | 297° |
| 2026-05-08 02:31 | 33.51708 | 70.97148 | 33944 ft | 449 kts | 308° |
| 2026-05-08 02:32 | 33.56126 | 70.91891 | 33955 ft | 450 kts | 317° |
| 2026-05-08 02:32 | 33.60779 | 70.86815 | 33948 ft | 455 kts | 317° |
| 2026-05-08 02:33 | 33.65433 | 70.81634 | 33967 ft | 457 kts | 317° |
| 2026-05-08 02:33 | 33.70068 | 70.76402 | 33972 ft | 457 kts | 316° |
| 2026-05-08 02:34 | 33.74685 | 70.71168 | 33983 ft | 456 kts | 316° |
| 2026-05-08 02:34 | 33.79284 | 70.65949 | 33983 ft | 454 kts | 317° |
| 2026-05-08 02:35 | 33.83869 | 70.60740 | 33987 ft | 453 kts | 316° |
| 2026-05-08 02:35 | 33.88440 | 70.55541 | 33988 ft | 451 kts | 316° |
| 2026-05-08 02:36 | 33.92700 | 70.50015 | 34002 ft | 450 kts | 308° |
| 2026-05-08 02:36 | 33.96149 | 70.43715 | 33986 ft | 452 kts | 300° |
| 2026-05-08 02:37 | 33.99079 | 70.37013 | 33988 ft | 453 kts | 299° |
| 2026-05-08 02:37 | 34.02013 | 70.30259 | 33996 ft | 455 kts | 299° |
| 2026-05-08 02:38 | 34.04969 | 70.23501 | 33991 ft | 456 kts | 299° |
| 2026-05-08 02:38 | 34.07915 | 70.16783 | 34007 ft | 455 kts | 300° |
| 2026-05-08 02:39 | 34.10870 | 70.10035 | 34001 ft | 455 kts | 299° |
| 2026-05-08 02:39 | 34.13824 | 70.03269 | 34002 ft | 455 kts | 299° |
| 2026-05-08 02:40 | 34.16764 | 69.96525 | 33999 ft | 454 kts | 299° |
| 2026-05-08 02:40 | 34.19695 | 69.89778 | 34018 ft | 453 kts | 299° |
| 2026-05-08 02:41 | 34.22610 | 69.83032 | 34016 ft | 452 kts | 299° |
| 2026-05-08 02:41 | 34.25516 | 69.76294 | 34025 ft | 452 kts | 299° |
| 2026-05-08 02:42 | 34.28412 | 69.69567 | 34033 ft | 451 kts | 299° |
| 2026-05-08 02:42 | 34.31309 | 69.62829 | 34032 ft | 452 kts | 299° |
| 2026-05-08 02:43 | 34.34205 | 69.56078 | 34030 ft | 453 kts | 299° |
| 2026-05-08 02:43 | 34.37104 | 69.49304 | 34043 ft | 453 kts | 299° |
| 2026-05-08 02:44 | 34.39998 | 69.42530 | 34028 ft | 453 kts | 299° |
| 2026-05-08 02:44 | 34.42394 | 69.36912 | 34042 ft | 452 kts | 299° |
| 2026-05-08 02:45 | 34.45267 | 69.30163 | 34045 ft | 450 kts | 299° |
| 2026-05-08 02:45 | 34.48133 | 69.23419 | 34053 ft | 450 kts | 299° |
| 2026-05-08 02:46 | 34.51423 | 69.17036 | 34050 ft | 444 kts | 313° |
| 2026-05-08 02:46 | 34.56041 | 69.12113 | 34061 ft | 443 kts | 327° |
| 2026-05-08 02:47 | 34.61433 | 69.08560 | 34070 ft | 440 kts | 331° |
| 2026-05-08 02:47 | 34.66868 | 69.05121 | 34064 ft | 441 kts | 331° |
| 2026-05-08 02:48 | 34.72296 | 69.01642 | 34070 ft | 441 kts | 330° |
| 2026-05-08 02:48 | 34.77708 | 68.98135 | 34095 ft | 441 kts | 330° |
| 2026-05-08 02:49 | 34.83132 | 68.94603 | 34105 ft | 442 kts | 330° |
| 2026-05-08 02:49 | 34.88526 | 68.91083 | 34133 ft | 444 kts | 330° |
| 2026-05-08 02:50 | 34.93976 | 68.87522 | 34125 ft | 445 kts | 330° |
| 2026-05-08 02:50 | 34.99473 | 68.83927 | 34176 ft | 445 kts | 330° |
| 2026-05-08 02:51 | 35.04881 | 68.80383 | 34189 ft | 443 kts | 330° |
| 2026-05-08 02:51 | 35.10305 | 68.76825 | 34193 ft | 442 kts | 330° |
| 2026-05-08 02:52 | 35.15726 | 68.73261 | 34200 ft | 443 kts | 330° |
| 2026-05-08 02:52 | 35.21155 | 68.69688 | 34236 ft | 443 kts | 330° |
| 2026-05-08 02:53 | 35.26593 | 68.66103 | 34234 ft | 445 kts | 330° |
| 2026-05-08 02:53 | 35.32050 | 68.62500 | 34230 ft | 447 kts | 330° |
| 2026-05-08 02:54 | 35.37532 | 68.58874 | 34231 ft | 449 kts | 330° |
| 2026-05-08 02:54 | 35.43040 | 68.55229 | 34208 ft | 450 kts | 330° |
| 2026-05-08 02:55 | 35.51286 | 68.49757 | 34203 ft | 448 kts | 330° |
| 2026-05-08 02:56 | 35.56748 | 68.46125 | 34185 ft | 445 kts | 330° |
| 2026-05-08 02:56 | 35.62175 | 68.42512 | 34175 ft | 441 kts | 330° |
| 2026-05-08 02:57 | 35.67551 | 68.38928 | 34167 ft | 438 kts | 330° |
| 2026-05-08 02:57 | 35.72918 | 68.35342 | 34166 ft | 439 kts | 330° |
| 2026-05-08 02:58 | 35.78302 | 68.31739 | 34179 ft | 441 kts | 330° |
| 2026-05-08 02:58 | 35.83706 | 68.28118 | 34166 ft | 443 kts | 330° |
| 2026-05-08 02:59 | 35.89141 | 68.24470 | 34149 ft | 446 kts | 330° |
| 2026-05-08 02:59 | 35.94603 | 68.20798 | 34156 ft | 448 kts | 330° |
| 2026-05-08 03:00 | 36.00084 | 68.17109 | 34134 ft | 448 kts | 329° |
| 2026-05-08 03:00 | 36.05515 | 68.13448 | 34121 ft | 447 kts | 329° |
| 2026-05-08 03:01 | 36.10956 | 68.09774 | 34120 ft | 444 kts | 329° |
| 2026-05-08 03:01 | 36.16367 | 68.06113 | 34106 ft | 443 kts | 329° |
| 2026-05-08 03:02 | 36.21769 | 68.02453 | 34084 ft | 442 kts | 329° |
| 2026-05-08 03:02 | 36.27161 | 67.98794 | 34080 ft | 442 kts | 329° |
| 2026-05-08 03:03 | 36.32546 | 67.95134 | 34067 ft | 442 kts | 329° |
| 2026-05-08 03:03 | 36.37940 | 67.91461 | 34062 ft | 442 kts | 329° |
| 2026-05-08 03:04 | 36.43342 | 67.87778 | 34059 ft | 443 kts | 329° |
| 2026-05-08 03:04 | 36.48750 | 67.84085 | 34051 ft | 444 kts | 329° |
| 2026-05-08 03:05 | 36.54168 | 67.80379 | 34051 ft | 445 kts | 329° |
| 2026-05-08 03:05 | 36.59596 | 67.76660 | 34041 ft | 445 kts | 329° |
| 2026-05-08 03:06 | 36.65020 | 67.72938 | 34058 ft | 445 kts | 329° |
| 2026-05-08 03:06 | 36.70458 | 67.69200 | 34030 ft | 446 kts | 329° |
| 2026-05-08 03:07 | 36.75891 | 67.65460 | 34036 ft | 446 kts | 329° |
| 2026-05-08 03:07 | 36.81313 | 67.61721 | 34027 ft | 445 kts | 329° |
| 2026-05-08 03:08 | 36.86729 | 67.57980 | 34021 ft | 444 kts | 329° |
| 2026-05-08 03:08 | 36.92136 | 67.54239 | 34013 ft | 444 kts | 329° |
| 2026-05-08 03:09 | 36.97535 | 67.50497 | 34011 ft | 443 kts | 329° |
| 2026-05-08 03:09 | 37.02925 | 67.46756 | 34005 ft | 443 kts | 329° |
| 2026-05-08 03:10 | 37.08271 | 67.43038 | 34005 ft | 442 kts | 329° |
| 2026-05-08 03:10 | 37.13647 | 67.39293 | 34015 ft | 442 kts | 329° |
| 2026-05-08 03:11 | 37.19031 | 67.35537 | 34008 ft | 443 kts | 329° |
| 2026-05-08 03:11 | 37.24368 | 67.31696 | 34008 ft | 442 kts | 327° |
| 2026-05-08 03:12 | 37.29615 | 67.27656 | 34022 ft | 442 kts | 326° |
| 2026-05-08 03:12 | 37.34857 | 67.23602 | 34026 ft | 443 kts | 326° |
| 2026-05-08 03:13 | 37.40125 | 67.19554 | 34010 ft | 444 kts | 326° |
| 2026-05-08 03:13 | 37.45401 | 67.15510 | 34017 ft | 444 kts | 326° |
| 2026-05-08 03:14 | 37.50678 | 67.11461 | 34009 ft | 444 kts | 326° |
| 2026-05-08 03:14 | 37.55958 | 67.07403 | 34011 ft | 445 kts | 326° |
| 2026-05-08 03:15 | 37.61243 | 67.03333 | 34009 ft | 445 kts | 326° |
| 2026-05-08 03:15 | 37.66531 | 66.99254 | 34019 ft | 445 kts | 326° |
| 2026-05-08 03:16 | 37.71816 | 66.95170 | 34038 ft | 446 kts | 326° |
| 2026-05-08 03:16 | 37.77111 | 66.91071 | 34024 ft | 446 kts | 326° |
| 2026-05-08 03:17 | 37.82396 | 66.86974 | 34044 ft | 445 kts | 326° |
| 2026-05-08 03:17 | 37.87672 | 66.82876 | 34048 ft | 445 kts | 326° |
| 2026-05-08 03:18 | 37.92935 | 66.78781 | 34064 ft | 444 kts | 326° |
| 2026-05-08 03:18 | 37.98127 | 66.74627 | 34052 ft | 443 kts | 321° |
| 2026-05-08 03:19 | 38.02555 | 66.69259 | 34052 ft | 440 kts | 309° |
| 2026-05-08 03:19 | 38.06051 | 66.62925 | 34057 ft | 438 kts | 301° |
| 2026-05-08 03:20 | 38.09202 | 66.56294 | 34056 ft | 439 kts | 301° |
| 2026-05-08 03:20 | 38.12366 | 66.49674 | 34040 ft | 438 kts | 301° |
| 2026-05-08 03:21 | 38.15544 | 66.43073 | 34027 ft | 437 kts | 301° |
| 2026-05-08 03:21 | 38.18716 | 66.36487 | 34018 ft | 437 kts | 301° |
| 2026-05-08 03:22 | 38.21882 | 66.29899 | 34014 ft | 436 kts | 301° |
| 2026-05-08 03:22 | 38.25039 | 66.23316 | 34010 ft | 436 kts | 301° |
| 2026-05-08 03:23 | 38.28195 | 66.16754 | 34008 ft | 434 kts | 301° |
| 2026-05-08 03:23 | 38.31347 | 66.10206 | 33999 ft | 433 kts | 301° |
| 2026-05-08 03:24 | 38.34487 | 66.03669 | 34002 ft | 432 kts | 301° |
| 2026-05-08 03:24 | 38.37617 | 65.97136 | 34005 ft | 432 kts | 301° |
| 2026-05-08 03:25 | 38.40744 | 65.90593 | 33994 ft | 432 kts | 301° |
| 2026-05-08 03:25 | 38.43845 | 65.84091 | 34000 ft | 432 kts | 300° |
| 2026-05-08 03:26 | 38.46966 | 65.77532 | 33996 ft | 432 kts | 300° |
| 2026-05-08 03:26 | 38.50082 | 65.70973 | 33997 ft | 432 kts | 300° |
| 2026-05-08 03:27 | 38.53198 | 65.64400 | 33992 ft | 432 kts | 300° |
| 2026-05-08 03:27 | 38.56308 | 65.57827 | 33986 ft | 432 kts | 300° |
| 2026-05-08 03:28 | 38.59409 | 65.51258 | 33992 ft | 431 kts | 300° |
| 2026-05-08 03:28 | 38.62503 | 65.44689 | 33991 ft | 431 kts | 300° |
| 2026-05-08 03:29 | 38.65594 | 65.38116 | 33992 ft | 431 kts | 300° |
| 2026-05-08 03:29 | 38.68680 | 65.31540 | 33987 ft | 431 kts | 300° |
| 2026-05-08 03:30 | 38.73297 | 65.21675 | 33986 ft | 430 kts | 300° |
| 2026-05-08 03:31 | 38.79424 | 65.08536 | 33980 ft | 429 kts | 300° |
| 2026-05-08 03:32 | 38.83983 | 64.98724 | 33980 ft | 429 kts | 299° |
| 2026-05-08 03:32 | 38.87026 | 64.92158 | 33982 ft | 428 kts | 299° |
| 2026-05-08 03:33 | 38.89574 | 64.86648 | 33977 ft | 428 kts | 299° |
| 2026-05-08 03:33 | 38.92607 | 64.80079 | 33979 ft | 427 kts | 299° |
| 2026-05-08 03:34 | 38.95633 | 64.73512 | 33987 ft | 427 kts | 299° |
| 2026-05-08 03:34 | 38.98658 | 64.66934 | 33980 ft | 427 kts | 299° |
| 2026-05-08 03:35 | 39.01677 | 64.60354 | 33977 ft | 427 kts | 299° |
| 2026-05-08 03:35 | 39.04691 | 64.53770 | 33981 ft | 427 kts | 298° |
| 2026-05-08 03:36 | 39.07703 | 64.47178 | 33972 ft | 427 kts | 298° |
| 2026-05-08 03:36 | 39.10711 | 64.40581 | 33975 ft | 427 kts | 298° |
| 2026-05-08 03:37 | 39.13718 | 64.33973 | 33980 ft | 427 kts | 298° |
| 2026-05-08 03:37 | 39.16700 | 64.27407 | 33974 ft | 427 kts | 298° |
| 2026-05-08 03:38 | 39.19694 | 64.20799 | 33980 ft | 427 kts | 298° |
| 2026-05-08 03:38 | 39.22681 | 64.14194 | 33982 ft | 426 kts | 298° |
| 2026-05-08 03:39 | 39.25662 | 64.07586 | 33987 ft | 426 kts | 298° |
| 2026-05-08 03:39 | 39.28635 | 64.00984 | 33982 ft | 425 kts | 298° |
| 2026-05-08 03:40 | 39.31598 | 63.94389 | 33969 ft | 424 kts | 297° |
| 2026-05-08 03:40 | 39.34545 | 63.87818 | 33976 ft | 422 kts | 297° |
| 2026-05-08 03:41 | 39.37485 | 63.81248 | 33992 ft | 422 kts | 297° |
| 2026-05-08 03:41 | 39.40416 | 63.74683 | 33973 ft | 422 kts | 297° |
| 2026-05-08 03:42 | 39.43343 | 63.68114 | 33992 ft | 421 kts | 297° |
| 2026-05-08 03:42 | 39.46265 | 63.61541 | 33997 ft | 421 kts | 297° |
| 2026-05-08 03:43 | 39.49162 | 63.55012 | 33997 ft | 421 kts | 297° |
| 2026-05-08 03:43 | 39.52076 | 63.48432 | 33999 ft | 421 kts | 297° |
| 2026-05-08 03:44 | 39.54991 | 63.41833 | 33989 ft | 422 kts | 296° |
| 2026-05-08 03:44 | 39.57903 | 63.35229 | 33992 ft | 422 kts | 296° |
| 2026-05-08 03:45 | 39.60807 | 63.28627 | 33991 ft | 421 kts | 296° |
| 2026-05-08 03:45 | 39.63706 | 63.22025 | 34008 ft | 421 kts | 296° |
| 2026-05-08 03:46 | 39.66597 | 63.15426 | 34008 ft | 421 kts | 296° |
| 2026-05-08 03:46 | 39.69486 | 63.08816 | 34019 ft | 420 kts | 296° |
| 2026-05-08 03:47 | 39.72365 | 63.02217 | 34014 ft | 420 kts | 296° |
| 2026-05-08 03:47 | 39.75235 | 62.95624 | 34032 ft | 419 kts | 296° |
| 2026-05-08 03:48 | 39.78080 | 62.89073 | 34020 ft | 419 kts | 296° |
| 2026-05-08 03:48 | 39.80940 | 62.82475 | 34021 ft | 419 kts | 295° |
| 2026-05-08 03:49 | 39.83239 | 62.75593 | 34026 ft | 413 kts | 284° |
| 2026-05-08 03:49 | 39.84467 | 62.68328 | 34021 ft | 411 kts | 276° |
| 2026-05-08 03:50 | 39.84721 | 62.60913 | 34035 ft | 410 kts | 272° |
| 2026-05-08 03:50 | 39.84872 | 62.53483 | 34030 ft | 411 kts | 272° |
| 2026-05-08 03:51 | 39.85037 | 62.46052 | 34033 ft | 411 kts | 272° |
| 2026-05-08 03:51 | 39.85212 | 62.38624 | 34030 ft | 410 kts | 272° |
| 2026-05-08 03:52 | 39.85388 | 62.31209 | 34033 ft | 409 kts | 272° |
| 2026-05-08 03:52 | 39.85559 | 62.23810 | 34037 ft | 409 kts | 272° |
| 2026-05-08 03:53 | 39.85725 | 62.16418 | 34041 ft | 408 kts | 272° |
| 2026-05-08 03:53 | 39.85886 | 62.09044 | 34037 ft | 407 kts | 272° |
| 2026-05-08 03:54 | 39.86042 | 62.01685 | 34038 ft | 406 kts | 271° |
| 2026-05-08 03:54 | 39.86192 | 61.94344 | 34041 ft | 406 kts | 271° |
| 2026-05-08 03:55 | 39.86339 | 61.87002 | 34059 ft | 406 kts | 271° |
| 2026-05-08 03:55 | 39.86481 | 61.79668 | 34046 ft | 405 kts | 271° |
| 2026-05-08 03:56 | 39.86617 | 61.72334 | 34046 ft | 405 kts | 271° |
| 2026-05-08 03:56 | 39.86749 | 61.65015 | 34041 ft | 404 kts | 271° |
| 2026-05-08 03:57 | 39.86876 | 61.57698 | 34041 ft | 404 kts | 271° |
| 2026-05-08 03:57 | 39.86999 | 61.50390 | 34049 ft | 404 kts | 271° |
| 2026-05-08 03:58 | 39.87117 | 61.43125 | 34046 ft | 404 kts | 271° |
| 2026-05-08 03:58 | 39.87237 | 61.35803 | 34047 ft | 405 kts | 271° |
| 2026-05-08 03:59 | 39.87418 | 61.28486 | 34054 ft | 405 kts | 271° |
| 2026-05-08 03:59 | 39.87609 | 61.21167 | 34047 ft | 404 kts | 271° |
| 2026-05-08 04:00 | 39.87790 | 61.13860 | 34051 ft | 404 kts | 271° |
| 2026-05-08 04:00 | 39.87962 | 61.06560 | 34053 ft | 403 kts | 271° |
| 2026-05-08 04:01 | 39.88128 | 60.99274 | 34060 ft | 402 kts | 271° |
| 2026-05-08 04:01 | 39.88289 | 60.92002 | 34055 ft | 402 kts | 271° |
| 2026-05-08 04:02 | 39.88445 | 60.84739 | 34057 ft | 401 kts | 271° |
| 2026-05-08 04:02 | 39.88596 | 60.77479 | 34056 ft | 401 kts | 271° |
| 2026-05-08 04:03 | 39.88743 | 60.70227 | 34064 ft | 401 kts | 270° |
| 2026-05-08 04:03 | 39.88955 | 60.59355 | 34061 ft | 400 kts | 270° |
| 2026-05-08 04:04 | 39.89091 | 60.52109 | 34078 ft | 400 kts | 270° |
| 2026-05-08 04:04 | 39.89222 | 60.44862 | 34071 ft | 400 kts | 270° |
| 2026-05-08 04:05 | 39.89349 | 60.37618 | 34058 ft | 400 kts | 270° |
| 2026-05-08 04:05 | 39.89471 | 60.30382 | 34067 ft | 399 kts | 269° |
| 2026-05-08 04:06 | 39.89571 | 60.23156 | 34067 ft | 399 kts | 269° |
| 2026-05-08 04:06 | 39.89644 | 60.15929 | 34080 ft | 399 kts | 269° |
| 2026-05-08 04:07 | 39.89713 | 60.08709 | 34067 ft | 399 kts | 269° |
| 2026-05-08 04:07 | 39.89781 | 60.01492 | 34062 ft | 398 kts | 269° |
| 2026-05-08 04:08 | 39.89845 | 59.94326 | 34074 ft | 398 kts | 269° |
| 2026-05-08 04:08 | 39.89905 | 59.87125 | 34100 ft | 398 kts | 268° |
| 2026-05-08 04:09 | 39.89960 | 59.79914 | 34073 ft | 398 kts | 268° |
| 2026-05-08 04:09 | 39.90011 | 59.72708 | 34072 ft | 397 kts | 268° |
| 2026-05-08 04:10 | 39.90057 | 59.65511 | 34071 ft | 397 kts | 268° |
| 2026-05-08 04:10 | 39.90100 | 59.58331 | 34075 ft | 396 kts | 268° |
| 2026-05-08 04:11 | 39.90137 | 59.51156 | 34074 ft | 396 kts | 268° |
| 2026-05-08 04:11 | 39.90171 | 59.43976 | 34072 ft | 396 kts | 268° |
| 2026-05-08 04:12 | 39.90200 | 59.36801 | 34073 ft | 396 kts | 268° |
| 2026-05-08 04:12 | 39.90210 | 59.29629 | 34085 ft | 396 kts | 267° |
| 2026-05-08 04:13 | 39.90209 | 59.22452 | 34075 ft | 396 kts | 267° |
| 2026-05-08 04:13 | 39.90206 | 59.15284 | 34078 ft | 396 kts | 267° |
| 2026-05-08 04:14 | 39.90200 | 59.08121 | 34076 ft | 395 kts | 267° |
| 2026-05-08 04:14 | 39.90174 | 59.00962 | 34092 ft | 395 kts | 266° |
| 2026-05-08 04:15 | 39.90138 | 58.93813 | 34075 ft | 394 kts | 266° |
| 2026-05-08 04:15 | 39.90099 | 58.86720 | 34077 ft | 394 kts | 266° |
| 2026-05-08 04:16 | 39.90057 | 58.79595 | 34077 ft | 393 kts | 266° |
| 2026-05-08 04:16 | 39.90011 | 58.72475 | 34082 ft | 393 kts | 266° |
| 2026-05-08 04:17 | 39.89961 | 58.65349 | 34079 ft | 393 kts | 266° |
| 2026-05-08 04:17 | 39.89907 | 58.58230 | 34084 ft | 393 kts | 266° |
| 2026-05-08 04:18 | 39.89848 | 58.51102 | 34092 ft | 394 kts | 266° |
| 2026-05-08 04:18 | 39.89785 | 58.43969 | 34091 ft | 394 kts | 265° |
| 2026-05-08 04:19 | 39.89717 | 58.36835 | 34084 ft | 394 kts | 265° |
| 2026-05-08 04:19 | 39.89645 | 58.29712 | 34088 ft | 393 kts | 265° |
| 2026-05-08 04:20 | 39.89570 | 58.22587 | 34089 ft | 393 kts | 265° |
| 2026-05-08 04:20 | 39.89491 | 58.15469 | 34089 ft | 393 kts | 265° |
| 2026-05-08 04:21 | 39.89440 | 58.09553 | 34090 ft | 393 kts | 265° |
| 2026-05-08 04:21 | 39.89385 | 58.02431 | 34093 ft | 393 kts | 265° |
| 2026-05-08 04:22 | 39.89326 | 57.95314 | 34096 ft | 393 kts | 265° |
| 2026-05-08 04:22 | 39.89261 | 57.88200 | 34108 ft | 393 kts | 265° |
| 2026-05-08 04:23 | 39.89190 | 57.81073 | 34103 ft | 394 kts | 265° |
| 2026-05-08 04:23 | 39.89115 | 57.73952 | 34094 ft | 393 kts | 265° |
| 2026-05-08 04:24 | 39.89035 | 57.66828 | 34094 ft | 393 kts | 265° |
| 2026-05-08 04:24 | 39.88952 | 57.59710 | 34098 ft | 393 kts | 264° |
| 2026-05-08 04:25 | 39.88863 | 57.52597 | 34098 ft | 393 kts | 264° |
| 2026-05-08 04:25 | 39.88771 | 57.45479 | 34103 ft | 393 kts | 264° |
| 2026-05-08 04:26 | 39.88674 | 57.38370 | 34099 ft | 393 kts | 264° |
| 2026-05-08 04:26 | 39.88573 | 57.31262 | 34102 ft | 393 kts | 264° |
| 2026-05-08 04:27 | 39.88467 | 57.24154 | 34114 ft | 393 kts | 264° |
| 2026-05-08 04:27 | 39.88357 | 57.17043 | 34106 ft | 393 kts | 264° |
| 2026-05-08 04:28 | 39.88243 | 57.09931 | 34122 ft | 393 kts | 263° |
| 2026-05-08 04:28 | 39.88125 | 57.02823 | 34113 ft | 393 kts | 263° |
| 2026-05-08 04:29 | 39.88003 | 56.95768 | 34111 ft | 393 kts | 263° |
| 2026-05-08 04:29 | 39.87876 | 56.88660 | 34117 ft | 392 kts | 263° |
| 2026-05-08 04:30 | 39.87745 | 56.81560 | 34121 ft | 392 kts | 263° |
| 2026-05-08 04:30 | 39.87609 | 56.74456 | 34117 ft | 392 kts | 263° |
| 2026-05-08 04:31 | 39.87469 | 56.67356 | 34118 ft | 393 kts | 263° |
| 2026-05-08 04:31 | 39.87324 | 56.60247 | 34123 ft | 393 kts | 263° |
| 2026-05-08 04:32 | 39.87175 | 56.53128 | 34134 ft | 393 kts | 263° |
| 2026-05-08 04:32 | 39.87022 | 56.46009 | 34119 ft | 394 kts | 262° |
| 2026-05-08 04:33 | 39.86864 | 56.38882 | 34116 ft | 394 kts | 262° |
| 2026-05-08 04:33 | 39.86703 | 56.31758 | 34125 ft | 394 kts | 262° |
| 2026-05-08 04:34 | 39.86537 | 56.24626 | 34126 ft | 394 kts | 262° |
| 2026-05-08 04:34 | 39.86369 | 56.17501 | 34115 ft | 394 kts | 262° |
| 2026-05-08 04:35 | 39.86201 | 56.10375 | 34115 ft | 394 kts | 262° |
| 2026-05-08 04:35 | 39.86029 | 56.03253 | 34130 ft | 394 kts | 262° |
| 2026-05-08 04:36 | 39.85852 | 55.96121 | 34123 ft | 394 kts | 262° |
| 2026-05-08 04:36 | 39.85670 | 55.88985 | 34127 ft | 395 kts | 262° |
| 2026-05-08 04:37 | 39.85485 | 55.81840 | 34126 ft | 395 kts | 262° |
| 2026-05-08 04:37 | 39.85295 | 55.74696 | 34125 ft | 395 kts | 262° |
| 2026-05-08 04:38 | 39.85101 | 55.67558 | 34133 ft | 395 kts | 262° |
| 2026-05-08 04:38 | 39.84902 | 55.60420 | 34129 ft | 394 kts | 261° |
| 2026-05-08 04:39 | 39.84699 | 55.53290 | 34136 ft | 394 kts | 261° |
| 2026-05-08 04:39 | 39.84492 | 55.46165 | 34131 ft | 394 kts | 261° |
| 2026-05-08 04:40 | 39.84280 | 55.39035 | 34153 ft | 395 kts | 261° |
| 2026-05-08 04:40 | 39.84063 | 55.31895 | 34144 ft | 395 kts | 261° |
| 2026-05-08 04:41 | 39.83842 | 55.24757 | 34134 ft | 395 kts | 261° |
| 2026-05-08 04:41 | 39.83617 | 55.17613 | 34142 ft | 395 kts | 261° |
| 2026-05-08 04:42 | 39.83389 | 55.10474 | 34142 ft | 395 kts | 261° |
| 2026-05-08 04:42 | 39.83156 | 55.03330 | 34155 ft | 395 kts | 261° |
| 2026-05-08 04:43 | 39.82935 | 54.96180 | 34141 ft | 396 kts | 261° |
| 2026-05-08 04:43 | 39.82714 | 54.89026 | 34142 ft | 396 kts | 261° |
| 2026-05-08 04:44 | 39.82509 | 54.81867 | 34148 ft | 398 kts | 263° |
| 2026-05-08 04:44 | 39.82993 | 54.74662 | 34145 ft | 405 kts | 269° |
| 2026-05-08 04:45 | 39.84129 | 54.67428 | 34151 ft | 412 kts | 275° |
| 2026-05-08 04:45 | 39.85701 | 54.60255 | 34140 ft | 412 kts | 275° |
| 2026-05-08 04:46 | 39.87256 | 54.53086 | 34144 ft | 411 kts | 275° |
| 2026-05-08 04:46 | 39.88785 | 54.45924 | 34145 ft | 410 kts | 275° |
| 2026-05-08 04:47 | 39.90294 | 54.38754 | 34150 ft | 410 kts | 275° |
| 2026-05-08 04:47 | 39.91786 | 54.31585 | 34153 ft | 410 kts | 275° |
| 2026-05-08 04:48 | 39.93275 | 54.24404 | 34146 ft | 411 kts | 275° |
| 2026-05-08 04:48 | 39.94763 | 54.17211 | 34132 ft | 411 kts | 275° |
| 2026-05-08 04:49 | 39.96247 | 54.10021 | 34174 ft | 411 kts | 275° |
| 2026-05-08 04:49 | 39.97729 | 54.02811 | 34156 ft | 412 kts | 275° |
| 2026-05-08 04:50 | 39.99212 | 53.95575 | 34143 ft | 413 kts | 275° |
| 2026-05-08 04:50 | 40.00692 | 53.88327 | 34140 ft | 414 kts | 275° |
| 2026-05-08 04:51 | 40.02172 | 53.81059 | 34151 ft | 415 kts | 275° |
| 2026-05-08 04:51 | 40.03647 | 53.73786 | 34171 ft | 416 kts | 275° |
| 2026-05-08 04:52 | 40.05125 | 53.66462 | 34153 ft | 418 kts | 275° |
| 2026-05-08 04:52 | 40.06605 | 53.59116 | 34148 ft | 419 kts | 275° |
| 2026-05-08 04:53 | 40.08086 | 53.51740 | 34148 ft | 420 kts | 275° |
| 2026-05-08 04:53 | 40.09563 | 53.44346 | 34160 ft | 422 kts | 276° |
| 2026-05-08 04:54 | 40.11045 | 53.36899 | 34144 ft | 426 kts | 276° |
| 2026-05-08 04:54 | 40.12529 | 53.29421 | 34149 ft | 429 kts | 276° |
| 2026-05-08 04:55 | 40.14029 | 53.21838 | 34148 ft | 432 kts | 276° |
| 2026-05-08 04:55 | 40.15531 | 53.14220 | 34162 ft | 433 kts | 276° |
| 2026-05-08 04:56 | 40.17030 | 53.06593 | 34158 ft | 433 kts | 276° |
| 2026-05-08 04:56 | 40.18520 | 52.98968 | 34167 ft | 433 kts | 277° |
| 2026-05-08 04:57 | 40.20009 | 52.91327 | 34176 ft | 434 kts | 277° |
| 2026-05-08 04:57 | 40.21495 | 52.83670 | 34168 ft | 434 kts | 277° |
| 2026-05-08 04:58 | 40.22977 | 52.76003 | 34165 ft | 435 kts | 277° |
| 2026-05-08 04:58 | 40.24454 | 52.68332 | 34193 ft | 435 kts | 277° |
| 2026-05-08 04:59 | 40.25932 | 52.60631 | 34176 ft | 436 kts | 277° |
| 2026-05-08 04:59 | 40.27410 | 52.52920 | 34168 ft | 437 kts | 277° |
| 2026-05-08 05:00 | 40.28894 | 52.45194 | 34169 ft | 437 kts | 277° |
| 2026-05-08 05:00 | 40.30372 | 52.37465 | 34171 ft | 438 kts | 277° |
| 2026-05-08 05:01 | 40.31846 | 52.29722 | 34165 ft | 439 kts | 277° |
| 2026-05-08 05:01 | 40.33316 | 52.21967 | 34168 ft | 439 kts | 277° |
| 2026-05-08 05:02 | 40.34781 | 52.14205 | 34170 ft | 439 kts | 277° |
| 2026-05-08 05:02 | 40.36242 | 52.06442 | 34171 ft | 439 kts | 277° |
| 2026-05-08 05:03 | 40.37697 | 51.98676 | 34172 ft | 438 kts | 277° |
| 2026-05-08 05:03 | 40.39145 | 51.90912 | 34170 ft | 438 kts | 277° |
| 2026-05-08 05:04 | 40.40589 | 51.83144 | 34171 ft | 438 kts | 277° |
| 2026-05-08 05:04 | 40.42027 | 51.75373 | 34181 ft | 438 kts | 277° |
| 2026-05-08 05:05 | 40.43450 | 51.67654 | 34170 ft | 438 kts | 277° |
| 2026-05-08 05:05 | 40.44879 | 51.59870 | 34183 ft | 439 kts | 277° |
| 2026-05-08 05:06 | 40.46304 | 51.52076 | 34171 ft | 439 kts | 277° |
| 2026-05-08 05:06 | 40.47295 | 51.45517 | 34170 ft | 436 kts | 273° |
| 2026-05-08 05:07 | 40.48270 | 51.37670 | 34166 ft | 436 kts | 272° |
| 2026-05-08 05:07 | 40.49236 | 51.29807 | 34167 ft | 436 kts | 273° |
| 2026-05-08 05:08 | 40.50201 | 51.21997 | 34171 ft | 437 kts | 273° |
| 2026-05-08 05:08 | 40.51175 | 51.14125 | 34169 ft | 436 kts | 272° |
| 2026-05-08 05:09 | 40.52151 | 51.06202 | 34165 ft | 436 kts | 272° |
| 2026-05-08 05:09 | 40.53114 | 50.98338 | 34166 ft | 436 kts | 272° |
| 2026-05-08 05:10 | 40.54547 | 50.86546 | 34166 ft | 435 kts | 272° |
| 2026-05-08 05:11 | 40.55496 | 50.78685 | 34171 ft | 435 kts | 272° |
| 2026-05-08 05:11 | 40.56432 | 50.70874 | 34158 ft | 435 kts | 272° |
| 2026-05-08 05:12 | 40.57369 | 50.63013 | 34156 ft | 435 kts | 272° |
| 2026-05-08 05:12 | 40.58301 | 50.55155 | 34155 ft | 435 kts | 272° |
| 2026-05-08 05:13 | 40.59227 | 50.47295 | 34151 ft | 435 kts | 272° |
| 2026-05-08 05:13 | 40.60147 | 50.39430 | 34156 ft | 435 kts | 271° |
| 2026-05-08 05:14 | 40.61064 | 50.31553 | 34140 ft | 435 kts | 271° |
| 2026-05-08 05:14 | 40.61975 | 50.23678 | 34140 ft | 435 kts | 271° |
| 2026-05-08 05:15 | 40.62880 | 50.15803 | 34154 ft | 435 kts | 271° |
| 2026-05-08 05:15 | 40.63782 | 50.07909 | 34141 ft | 436 kts | 271° |
| 2026-05-08 05:16 | 40.64679 | 50.00006 | 34137 ft | 437 kts | 271° |
| 2026-05-08 05:16 | 40.65573 | 49.92080 | 34147 ft | 438 kts | 271° |
| 2026-05-08 05:17 | 40.66463 | 49.84138 | 34142 ft | 439 kts | 271° |
| 2026-05-08 05:17 | 40.67350 | 49.76182 | 34155 ft | 439 kts | 271° |
| 2026-05-08 05:18 | 40.68231 | 49.68220 | 34165 ft | 440 kts | 271° |
| 2026-05-08 05:18 | 40.69108 | 49.60238 | 34165 ft | 441 kts | 271° |
| 2026-05-08 05:19 | 40.69983 | 49.52224 | 34160 ft | 443 kts | 271° |
| 2026-05-08 05:19 | 40.70851 | 49.44235 | 34159 ft | 444 kts | 271° |
| 2026-05-08 05:20 | 40.71719 | 49.36182 | 34148 ft | 443 kts | 271° |
| 2026-05-08 05:20 | 40.72581 | 49.28150 | 34170 ft | 442 kts | 271° |
| 2026-05-08 05:21 | 40.73384 | 49.20097 | 34173 ft | 444 kts | 270° |
| 2026-05-08 05:21 | 40.73978 | 49.11979 | 34173 ft | 446 kts | 269° |
| 2026-05-08 05:22 | 40.74542 | 49.03827 | 34164 ft | 447 kts | 269° |
| 2026-05-08 05:22 | 40.75126 | 48.95655 | 34176 ft | 448 kts | 269° |
| 2026-05-08 05:23 | 40.75720 | 48.87476 | 34171 ft | 448 kts | 269° |
| 2026-05-08 05:23 | 40.76312 | 48.79294 | 34182 ft | 448 kts | 270° |
| 2026-05-08 05:24 | 40.76899 | 48.71109 | 34180 ft | 448 kts | 270° |
| 2026-05-08 05:24 | 40.77478 | 48.62923 | 34174 ft | 448 kts | 269° |
| 2026-05-08 05:25 | 40.78051 | 48.54722 | 34203 ft | 449 kts | 270° |
| 2026-05-08 05:25 | 40.78621 | 48.46516 | 34183 ft | 449 kts | 269° |
| 2026-05-08 05:26 | 40.79180 | 48.38358 | 34214 ft | 450 kts | 270° |
| 2026-05-08 05:26 | 40.79741 | 48.30064 | 34184 ft | 451 kts | 270° |
| 2026-05-08 05:27 | 40.80292 | 48.21873 | 34189 ft | 452 kts | 270° |
| 2026-05-08 05:27 | 40.80841 | 48.13600 | 34186 ft | 453 kts | 270° |
| 2026-05-08 05:28 | 40.81386 | 48.05320 | 34196 ft | 452 kts | 270° |
| 2026-05-08 05:28 | 40.81924 | 47.97057 | 34184 ft | 451 kts | 270° |
| 2026-05-08 05:29 | 40.82452 | 47.88832 | 34191 ft | 449 kts | 269° |
| 2026-05-08 05:29 | 40.82973 | 47.80624 | 34182 ft | 448 kts | 269° |
| 2026-05-08 05:30 | 40.83488 | 47.72423 | 34187 ft | 448 kts | 269° |
| 2026-05-08 05:30 | 40.83997 | 47.64214 | 34191 ft | 449 kts | 269° |
| 2026-05-08 05:31 | 40.84504 | 47.55989 | 34189 ft | 450 kts | 269° |
| 2026-05-08 05:31 | 40.85024 | 47.47752 | 34189 ft | 451 kts | 270° |
| 2026-05-08 05:32 | 40.85660 | 47.39482 | 34192 ft | 453 kts | 271° |
| 2026-05-08 05:32 | 40.86311 | 47.31167 | 34304 ft | 457 kts | 271° |
| 2026-05-08 05:32 | 40.86629 | 47.26995 | 34571 ft | 456 kts | 271° |
| 2026-05-08 05:33 | 40.86944 | 47.22826 | 34859 ft | 455 kts | 271° |
| 2026-05-08 05:33 | 40.87254 | 47.18673 | 35143 ft | 455 kts | 271° |
| 2026-05-08 05:33 | 40.87561 | 47.14516 | 35386 ft | 455 kts | 271° |
| 2026-05-08 05:33 | 40.87866 | 47.10358 | 35592 ft | 456 kts | 271° |
| 2026-05-08 05:34 | 40.88172 | 47.06160 | 35643 ft | 461 kts | 271° |
| 2026-05-08 05:34 | 40.88480 | 47.01933 | 35821 ft | 463 kts | 271° |
| 2026-05-08 05:34 | 40.88788 | 46.97707 | 36079 ft | 462 kts | 271° |
| 2026-05-08 05:35 | 40.89396 | 46.89279 | 36164 ft | 464 kts | 271° |
| 2026-05-08 05:35 | 40.89719 | 46.80831 | 36174 ft | 457 kts | 264° |
| 2026-05-08 05:36 | 40.89045 | 46.72475 | 36179 ft | 453 kts | 259° |
| 2026-05-08 05:36 | 40.88238 | 46.64296 | 36193 ft | 452 kts | 259° |
| 2026-05-08 05:37 | 40.87440 | 46.56031 | 36185 ft | 455 kts | 260° |
| 2026-05-08 05:37 | 40.86644 | 46.47713 | 36184 ft | 457 kts | 260° |
| 2026-05-08 05:38 | 40.85844 | 46.39353 | 36183 ft | 460 kts | 260° |
| 2026-05-08 05:38 | 40.85032 | 46.30954 | 36183 ft | 462 kts | 260° |
| 2026-05-08 05:39 | 40.84210 | 46.22527 | 36181 ft | 463 kts | 260° |
| 2026-05-08 05:39 | 40.83382 | 46.14094 | 36173 ft | 463 kts | 260° |
| 2026-05-08 05:40 | 40.82549 | 46.05672 | 36170 ft | 463 kts | 260° |
| 2026-05-08 05:40 | 40.81709 | 45.97256 | 36165 ft | 462 kts | 260° |
| 2026-05-08 05:41 | 40.80865 | 45.88852 | 36178 ft | 462 kts | 260° |
| 2026-05-08 05:41 | 40.80013 | 45.80442 | 36186 ft | 462 kts | 260° |
| 2026-05-08 05:42 | 40.79156 | 45.72039 | 36176 ft | 462 kts | 260° |
| 2026-05-08 05:42 | 40.78293 | 45.63638 | 36187 ft | 463 kts | 260° |
| 2026-05-08 05:43 | 40.77422 | 45.55215 | 36173 ft | 463 kts | 260° |
| 2026-05-08 05:43 | 40.76989 | 45.46738 | 36183 ft | 466 kts | 270° |
| 2026-05-08 05:44 | 40.77402 | 45.38185 | 36187 ft | 468 kts | 271° |
| 2026-05-08 05:44 | 40.77828 | 45.29619 | 36193 ft | 469 kts | 271° |
| 2026-05-08 05:45 | 40.78225 | 45.21030 | 36194 ft | 469 kts | 271° |
| 2026-05-08 05:45 | 40.78603 | 45.12425 | 36194 ft | 470 kts | 271° |
| 2026-05-08 05:46 | 40.78975 | 45.03809 | 36194 ft | 470 kts | 271° |
| 2026-05-08 05:46 | 40.79337 | 44.95242 | 36202 ft | 471 kts | 271° |
| 2026-05-08 05:47 | 40.79695 | 44.86603 | 36189 ft | 472 kts | 271° |
| 2026-05-08 05:47 | 40.80049 | 44.77960 | 36198 ft | 471 kts | 271° |
| 2026-05-08 05:48 | 40.80395 | 44.69323 | 36195 ft | 472 kts | 271° |
| 2026-05-08 05:48 | 40.80736 | 44.60678 | 36198 ft | 472 kts | 271° |
| 2026-05-08 05:49 | 40.81072 | 44.52028 | 36198 ft | 472 kts | 271° |
| 2026-05-08 05:49 | 40.81400 | 44.43362 | 36205 ft | 472 kts | 271° |
| 2026-05-08 05:50 | 40.81720 | 44.34703 | 36215 ft | 472 kts | 271° |
| 2026-05-08 05:50 | 40.82036 | 44.26036 | 36217 ft | 473 kts | 271° |
| 2026-05-08 05:51 | 40.82345 | 44.17370 | 36224 ft | 473 kts | 271° |
| 2026-05-08 05:51 | 40.82647 | 44.08693 | 36219 ft | 473 kts | 271° |
| 2026-05-08 05:52 | 40.82944 | 44.00010 | 36217 ft | 474 kts | 271° |
| 2026-05-08 05:52 | 40.83186 | 43.92782 | 36221 ft | 474 kts | 271° |
| 2026-05-08 05:53 | 40.83473 | 43.84075 | 36216 ft | 475 kts | 271° |
| 2026-05-08 05:53 | 40.83767 | 43.75361 | 36214 ft | 475 kts | 272° |
| 2026-05-08 05:54 | 40.84071 | 43.66644 | 36211 ft | 475 kts | 273° |
| 2026-05-08 05:54 | 40.84533 | 43.57933 | 36214 ft | 476 kts | 274° |
| 2026-05-08 05:55 | 40.85054 | 43.49225 | 36216 ft | 476 kts | 274° |
| 2026-05-08 05:55 | 40.85556 | 43.40497 | 36214 ft | 476 kts | 274° |
| 2026-05-08 05:56 | 40.86032 | 43.31779 | 36214 ft | 476 kts | 274° |
| 2026-05-08 05:56 | 40.86496 | 43.23053 | 36219 ft | 476 kts | 274° |
| 2026-05-08 05:57 | 40.86953 | 43.14332 | 36218 ft | 476 kts | 274° |
| 2026-05-08 05:57 | 40.87404 | 43.05617 | 36226 ft | 475 kts | 273° |
| 2026-05-08 05:58 | 40.87849 | 42.96894 | 36223 ft | 476 kts | 273° |
| 2026-05-08 05:58 | 40.88287 | 42.88180 | 36232 ft | 476 kts | 274° |
| 2026-05-08 05:59 | 40.88719 | 42.79451 | 36232 ft | 476 kts | 274° |
| 2026-05-08 05:59 | 40.89145 | 42.70723 | 36237 ft | 476 kts | 274° |
| 2026-05-08 06:00 | 40.89561 | 42.62047 | 36236 ft | 476 kts | 274° |
| 2026-05-08 06:00 | 40.89974 | 42.53315 | 36241 ft | 476 kts | 274° |
| 2026-05-08 06:01 | 40.90379 | 42.44577 | 36241 ft | 476 kts | 274° |
| 2026-05-08 06:01 | 40.90779 | 42.35830 | 36236 ft | 477 kts | 274° |
| 2026-05-08 06:02 | 40.91173 | 42.27075 | 36231 ft | 477 kts | 274° |
| 2026-05-08 06:02 | 40.91560 | 42.18319 | 36232 ft | 477 kts | 274° |
| 2026-05-08 06:03 | 40.91941 | 42.09561 | 36229 ft | 477 kts | 274° |
| 2026-05-08 06:03 | 40.92314 | 42.00805 | 36221 ft | 477 kts | 274° |
| 2026-05-08 06:04 | 40.92681 | 41.92036 | 36222 ft | 478 kts | 274° |
| 2026-05-08 06:04 | 40.93042 | 41.83267 | 36219 ft | 478 kts | 274° |
| 2026-05-08 06:05 | 40.93396 | 41.74485 | 36213 ft | 478 kts | 274° |
| 2026-05-08 06:05 | 40.93744 | 41.65711 | 36210 ft | 478 kts | 274° |
| 2026-05-08 06:06 | 40.94086 | 41.56937 | 36218 ft | 478 kts | 274° |
| 2026-05-08 06:06 | 40.94419 | 41.48163 | 36214 ft | 478 kts | 274° |
| 2026-05-08 06:07 | 40.94747 | 41.39385 | 36217 ft | 478 kts | 274° |
| 2026-05-08 06:07 | 40.95067 | 41.30659 | 36219 ft | 478 kts | 274° |
| 2026-05-08 06:08 | 40.95381 | 41.21873 | 36210 ft | 478 kts | 274° |
| 2026-05-08 06:08 | 40.95689 | 41.13096 | 36220 ft | 478 kts | 274° |
| 2026-05-08 06:09 | 40.95989 | 41.04325 | 36212 ft | 477 kts | 274° |
| 2026-05-08 06:09 | 40.96285 | 40.95547 | 36219 ft | 477 kts | 274° |
| 2026-05-08 06:10 | 40.96572 | 40.86783 | 36215 ft | 477 kts | 274° |
| 2026-05-08 06:10 | 40.96848 | 40.78002 | 36203 ft | 478 kts | 274° |
| 2026-05-08 06:11 | 40.97117 | 40.69214 | 36213 ft | 478 kts | 274° |
| 2026-05-08 06:11 | 40.97381 | 40.60425 | 36219 ft | 478 kts | 274° |
| 2026-05-08 06:12 | 40.97639 | 40.51640 | 36207 ft | 478 kts | 274° |
| 2026-05-08 06:12 | 40.97890 | 40.42840 | 36217 ft | 478 kts | 274° |
| 2026-05-08 06:13 | 40.98134 | 40.34031 | 36214 ft | 479 kts | 274° |
| 2026-05-08 06:13 | 40.98373 | 40.25223 | 36202 ft | 479 kts | 274° |
| 2026-05-08 06:14 | 40.98604 | 40.16410 | 36205 ft | 480 kts | 274° |
| 2026-05-08 06:14 | 40.98829 | 40.07586 | 36209 ft | 479 kts | 274° |
| 2026-05-08 06:15 | 40.99047 | 39.98777 | 36202 ft | 479 kts | 274° |
| 2026-05-08 06:15 | 40.99258 | 39.90029 | 36215 ft | 478 kts | 274° |
| 2026-05-08 06:16 | 40.99464 | 39.81235 | 36211 ft | 478 kts | 274° |
| 2026-05-08 06:16 | 41.00115 | 39.72512 | 36219 ft | 476 kts | 279° |
| 2026-05-08 06:17 | 41.01423 | 39.59487 | 36198 ft | 476 kts | 279° |
| 2026-05-08 06:17 | 41.02260 | 39.50791 | 36196 ft | 476 kts | 279° |
| 2026-05-08 06:18 | 41.03076 | 39.42105 | 36198 ft | 475 kts | 279° |
| 2026-05-08 06:18 | 41.03884 | 39.33428 | 36204 ft | 474 kts | 279° |
| 2026-05-08 06:19 | 41.04686 | 39.24752 | 36207 ft | 474 kts | 279° |
| 2026-05-08 06:19 | 41.05489 | 39.16026 | 36201 ft | 474 kts | 279° |
| 2026-05-08 06:20 | 41.06287 | 39.07360 | 36199 ft | 474 kts | 279° |
| 2026-05-08 06:20 | 41.07090 | 38.98759 | 36203 ft | 473 kts | 279° |
| 2026-05-08 06:21 | 41.07891 | 38.90098 | 36200 ft | 473 kts | 279° |
| 2026-05-08 06:21 | 41.08682 | 38.81447 | 36190 ft | 473 kts | 279° |
| 2026-05-08 06:22 | 41.09466 | 38.72801 | 36202 ft | 472 kts | 279° |
| 2026-05-08 06:22 | 41.10216 | 38.64148 | 36204 ft | 472 kts | 279° |
| 2026-05-08 06:23 | 41.10929 | 38.55487 | 36204 ft | 472 kts | 279° |
| 2026-05-08 06:23 | 41.11663 | 38.46826 | 36199 ft | 472 kts | 279° |
| 2026-05-08 06:24 | 41.12391 | 38.38174 | 36210 ft | 473 kts | 279° |
| 2026-05-08 06:24 | 41.13111 | 38.29506 | 36209 ft | 473 kts | 279° |
| 2026-05-08 06:25 | 41.13820 | 38.20834 | 36210 ft | 473 kts | 278° |
| 2026-05-08 06:25 | 41.14518 | 38.12153 | 36199 ft | 473 kts | 278° |
| 2026-05-08 06:26 | 41.15210 | 38.03485 | 36214 ft | 472 kts | 278° |
| 2026-05-08 06:26 | 41.15897 | 37.94812 | 36202 ft | 472 kts | 278° |
| 2026-05-08 06:27 | 41.16583 | 37.86152 | 36203 ft | 472 kts | 279° |
| 2026-05-08 06:27 | 41.17332 | 37.77564 | 36198 ft | 471 kts | 279° |
| 2026-05-08 06:28 | 41.18091 | 37.68927 | 36191 ft | 471 kts | 279° |
| 2026-05-08 06:28 | 41.18823 | 37.60292 | 36194 ft | 471 kts | 278° |
| 2026-05-08 06:29 | 41.19256 | 37.51615 | 36195 ft | 471 kts | 277° |
| 2026-05-08 06:29 | 41.19876 | 37.42965 | 36182 ft | 470 kts | 278° |
| 2026-05-08 06:30 | 41.20543 | 37.34346 | 36182 ft | 469 kts | 278° |
| 2026-05-08 06:30 | 41.21172 | 37.25725 | 36187 ft | 469 kts | 278° |
| 2026-05-08 06:31 | 41.21808 | 37.17117 | 36185 ft | 468 kts | 278° |
| 2026-05-08 06:31 | 41.22496 | 37.08518 | 36184 ft | 468 kts | 279° |
| 2026-05-08 06:32 | 41.23180 | 36.99920 | 36179 ft | 468 kts | 278° |
| 2026-05-08 06:32 | 41.23849 | 36.91321 | 36179 ft | 468 kts | 278° |
| 2026-05-08 06:33 | 41.24509 | 36.82723 | 36189 ft | 468 kts | 278° |
| 2026-05-08 06:33 | 41.25162 | 36.74123 | 36187 ft | 468 kts | 278° |
| 2026-05-08 06:34 | 41.25809 | 36.65532 | 36179 ft | 467 kts | 278° |
| 2026-05-08 06:34 | 41.26501 | 36.57007 | 36187 ft | 466 kts | 282° |
| 2026-05-08 06:35 | 41.28086 | 36.48717 | 36176 ft | 462 kts | 291° |
| 2026-05-08 06:35 | 41.30185 | 36.40657 | 36179 ft | 461 kts | 291° |
| 2026-05-08 06:36 | 41.32274 | 36.32580 | 36180 ft | 462 kts | 291° |
| 2026-05-08 06:36 | 41.34333 | 36.24497 | 36177 ft | 461 kts | 291° |
| 2026-05-08 06:37 | 41.36377 | 36.16402 | 36183 ft | 461 kts | 291° |
| 2026-05-08 06:37 | 41.38412 | 36.08301 | 36177 ft | 462 kts | 291° |
| 2026-05-08 06:38 | 41.40444 | 36.00189 | 36179 ft | 462 kts | 291° |
| 2026-05-08 06:38 | 41.42467 | 35.92087 | 36170 ft | 461 kts | 291° |
| 2026-05-08 06:39 | 41.44482 | 35.83989 | 36173 ft | 460 kts | 291° |
| 2026-05-08 06:39 | 41.46487 | 35.75908 | 36175 ft | 459 kts | 291° |
| 2026-05-08 06:40 | 41.48148 | 35.69192 | 36172 ft | 458 kts | 291° |
| 2026-05-08 06:40 | 41.50140 | 35.61112 | 36175 ft | 458 kts | 291° |
| 2026-05-08 06:41 | 41.52124 | 35.53036 | 36178 ft | 458 kts | 290° |
| 2026-05-08 06:41 | 41.54103 | 35.44950 | 36176 ft | 459 kts | 290° |
| 2026-05-08 06:42 | 41.56080 | 35.36844 | 36167 ft | 459 kts | 290° |
| 2026-05-08 06:42 | 41.58050 | 35.28739 | 36159 ft | 459 kts | 290° |
| 2026-05-08 06:43 | 41.60002 | 35.20684 | 36175 ft | 458 kts | 290° |
| 2026-05-08 06:43 | 41.61968 | 35.12537 | 36168 ft | 457 kts | 290° |
| 2026-05-08 06:44 | 41.63913 | 35.04451 | 36167 ft | 456 kts | 290° |
| 2026-05-08 06:44 | 41.65845 | 34.96389 | 36172 ft | 455 kts | 290° |
| 2026-05-08 06:45 | 41.67756 | 34.88391 | 36164 ft | 454 kts | 290° |
| 2026-05-08 06:45 | 41.69683 | 34.80298 | 36177 ft | 454 kts | 290° |
| 2026-05-08 06:46 | 41.71589 | 34.72253 | 36174 ft | 453 kts | 290° |
| 2026-05-08 06:46 | 41.73479 | 34.64263 | 36168 ft | 453 kts | 290° |
| 2026-05-08 06:47 | 41.75375 | 34.56213 | 36170 ft | 453 kts | 290° |
| 2026-05-08 06:47 | 41.77259 | 34.48167 | 36165 ft | 453 kts | 290° |
| 2026-05-08 06:48 | 41.79140 | 34.40117 | 36162 ft | 453 kts | 290° |
| 2026-05-08 06:48 | 41.81016 | 34.32061 | 36179 ft | 453 kts | 290° |
| 2026-05-08 06:49 | 41.82884 | 34.24013 | 36185 ft | 452 kts | 290° |
| 2026-05-08 06:49 | 41.84744 | 34.15953 | 36183 ft | 452 kts | 290° |
| 2026-05-08 06:50 | 41.86602 | 34.07887 | 36177 ft | 452 kts | 290° |
| 2026-05-08 06:50 | 41.88451 | 33.99828 | 36169 ft | 452 kts | 290° |
| 2026-05-08 06:51 | 41.90295 | 33.91762 | 36174 ft | 452 kts | 290° |
| 2026-05-08 06:51 | 41.92134 | 33.83685 | 36165 ft | 452 kts | 290° |
| 2026-05-08 06:52 | 41.93957 | 33.75658 | 36167 ft | 453 kts | 289° |
| 2026-05-08 06:52 | 41.95759 | 33.67552 | 36170 ft | 453 kts | 288° |
| 2026-05-08 06:53 | 41.97338 | 33.59354 | 36174 ft | 453 kts | 287° |
| 2026-05-08 06:53 | 41.98875 | 33.51133 | 36159 ft | 454 kts | 287° |
| 2026-05-08 06:54 | 42.00436 | 33.42922 | 36145 ft | 453 kts | 287° |
| 2026-05-08 06:54 | 42.02004 | 33.34709 | 36151 ft | 453 kts | 287° |
| 2026-05-08 06:55 | 42.03566 | 33.26509 | 36152 ft | 453 kts | 287° |
| 2026-05-08 06:55 | 42.05119 | 33.18311 | 36158 ft | 452 kts | 287° |
| 2026-05-08 06:56 | 42.06665 | 33.10120 | 36154 ft | 451 kts | 286° |
| 2026-05-08 06:56 | 42.08263 | 33.01957 | 36153 ft | 451 kts | 288° |
| 2026-05-08 06:57 | 42.09955 | 32.93820 | 36151 ft | 451 kts | 288° |
| 2026-05-08 06:57 | 42.11635 | 32.85684 | 36157 ft | 451 kts | 288° |
| 2026-05-08 06:58 | 42.13297 | 32.77532 | 36150 ft | 451 kts | 287° |
| 2026-05-08 06:58 | 42.14937 | 32.69437 | 36136 ft | 442 kts | 287° |
| 2026-05-08 06:59 | 42.16532 | 32.61539 | 36145 ft | 432 kts | 287° |
| 2026-05-08 06:59 | 42.17951 | 32.54480 | 36163 ft | 436 kts | 287° |
| 2026-05-08 07:00 | 42.19542 | 32.46527 | 36169 ft | 447 kts | 287° |
| 2026-05-08 07:00 | 42.21170 | 32.38350 | 36162 ft | 455 kts | 287° |
| 2026-05-08 07:01 | 42.22797 | 32.30141 | 36150 ft | 456 kts | 287° |
| 2026-05-08 07:01 | 42.24432 | 32.21865 | 36148 ft | 456 kts | 287° |
| 2026-05-08 07:02 | 42.26065 | 32.13594 | 36143 ft | 455 kts | 287° |
| 2026-05-08 07:02 | 42.27685 | 32.05340 | 36143 ft | 454 kts | 286° |
| 2026-05-08 07:03 | 42.29290 | 31.97096 | 36143 ft | 454 kts | 286° |
| 2026-05-08 07:03 | 42.30887 | 31.88858 | 36143 ft | 453 kts | 286° |
| 2026-05-08 07:04 | 42.32476 | 31.80631 | 36139 ft | 452 kts | 286° |
| 2026-05-08 07:04 | 42.34060 | 31.72401 | 36139 ft | 452 kts | 285° |
| 2026-05-08 07:05 | 42.35638 | 31.64163 | 36141 ft | 453 kts | 285° |
| 2026-05-08 07:05 | 42.37212 | 31.55914 | 36146 ft | 453 kts | 285° |
| 2026-05-08 07:06 | 42.38783 | 31.47646 | 36138 ft | 454 kts | 285° |
| 2026-05-08 07:06 | 42.40351 | 31.39354 | 36144 ft | 455 kts | 285° |
| 2026-05-08 07:07 | 42.41916 | 31.31043 | 36143 ft | 456 kts | 285° |
| 2026-05-08 07:07 | 42.43478 | 31.22715 | 36136 ft | 457 kts | 285° |
| 2026-05-08 07:08 | 42.45036 | 31.14374 | 36135 ft | 457 kts | 285° |